ログインしてさらにmixiを楽しもう

コメントを投稿して情報交換!
更新通知を受け取って、最新情報をゲット!

ホーム > コミュニティ > サークル、ゼミ > RJCCのMETAR・TAF 愛好会 > トピック一覧 > 【資料編】日々のMETAR 2...

RJCCのMETAR・TAF 愛好会コミュの【資料編】日々のMETAR 2017年01月01日〜2017年12月31日分

  • mixiチェック
  • このエントリーをはてなブックマークに追加

コミュ内全体

2017年01月01日 00h (UTC)〜 01月31日 24h(UTC) コメントNo 001〜089
2017年02月01日 00h (UTC)〜 02月29日 24h(UTC) コメントNo 090〜172
2017年03月01日 00h (UTC)〜 03月31日 24h(UTC) コメントNo 173〜258
2017年04月01日 00h (UTC)〜 04月30日 24h(UTC) コメントNo 259〜340
2017年05月01日 00h (UTC)〜 05月31日 24h(UTC) コメントNo 341〜423
2017年06月01日 00h (UTC)〜 06月30日 24h(UTC) コメントNo 424〜509
2017年07月01日 00h (UTC)〜 07月31日 24h(UTC) コメントNo 510〜593
2017年08月01日 00h (UTC)〜 08月31日 24h(UTC) コメントNo 594〜679
2017年09月01日 00h (UTC)〜 09月30日 24h(UTC) コメントNo 680〜755
2017年10月01日 00h (UTC)〜 10月31日 24h(UTC) コメントNo 756〜834
2017年11月01日 00h (UTC)〜 11月30日 24h(UTC) コメントNo 835〜914
2017年12月01日 00h (UTC)〜 12月31日 24h(UTC) コメントNo 915〜999

記録できた日々のMETAR報を貼っていきます。
時々データ抜けのあることがあります。
収集元でデータの欠落がある場合もありますのであくまで参考に願います。
(気が付いた部分は手修正をしてある場合もあります)

また、資料編ですのでお気づきな点や雑談は↓
http://mixi.jp/view_bbs.pl?id=49275149&comm_id=4753062
↑こちらへどうぞ お願いします

2009年12月26日〜2010年12月31日分の分は↓
http://mixi.jp/view_bbs.pl?id=51133430&comm_id=4753062
2011年01月01日〜2011年12月31日分の分は↓
http://mixi.jp/view_bbs.pl?id=59038880&comm_id=4753062
2012年01月01日〜2012年12月31日分の分は↓
http://mixi.jp/view_bbs.pl?id=67034312&comm_id=4753062
2013年01月01日〜2013年12月31日分の分は↓
http://mixi.jp/view_bbs.pl?id=72710304&comm_id=4753062
2014年01月01日〜2014年12月31日分の分は↓
http://mixi.jp/view_bbs.pl?id=75482778&comm_id=4753062
2015年01月01日〜2015年12月16日分の分は↓
http://mixi.jp/view_bbs.pl?id=77499256&comm_id=4753062
2015年12月17日〜2015年12月31日分の分は↓
http://mixi.jp/view_bbs.pl?id=79198706&comm_id=4753062
2016年01月01日〜2016年11月30日分の分は↓
http://mixi.jp/view_bbs.pl?comm_id=4753062&id=79198682
2016年12月01日〜2017年12月31日分の分は↓
http://mixi.jp/view_bbs.pl?comm_id=4753062&id=81180137

コメント(999)

-2
RJCC 171400Z VRB02KT 9999 FEW020 M14/M15 Q1016 RMK 1CU020 A3000
RJCC 171430Z VRB02KT 9999 FEW020 M14/M15 Q1016 RMK 1CU020 A3000
RJCC 171500Z 00000KT 9999 FEW020 M14/M16 Q1016 RMK 1CU020 A3000
RJCC 171530Z VRB02KT 9999 FEW020 M15/M16 Q1016 RMK 1CU020 A3001
RJCC 171600Z 10004KT 050V220 9999 FEW020 M16/M17 Q1016 RMK 1CU020 A3002
RJCC 171630Z VRB01KT 9999 FEW020 M17/M18 Q1016 RMK 1CU020 A3002
RJCC 171700Z VRB01KT 9999 FEW020 M16/M17 Q1017 RMK 1CU020 A3003
RJCC 171730Z 21002KT 9999 FEW020 M16/M18 Q1017 RMK 1CU020 A3003
RJCC 171800Z VRB01KT 9999 FEW020 M17/M18 Q1016 RMK 1CU020 A3003
RJCC 171830Z 20002KT 9999 FEW020 M17/M18 Q1016 RMK 1CU020 A3003
RJCC 171900Z 18003KT 9999 FEW020 M18/M19 Q1016 RMK 1CU020 A3003
RJCC 171930Z 36003KT 9999 FEW020 SCT050 M16/M18 Q1017 RMK 1CU020 3CU050 A3003
RJCC 172000Z 19001KT 9999 FEW020 SCT050 M18/M19 Q1017 RMK 1CU020 3CU050 A3004
RJCC 172030Z 22001KT 9999 FEW020 M17/M18 Q1017 RMK 1CU020 A3004
RJCC 172100Z 19003KT 9999 FEW020 M17/M19 Q1017 RMK 1CU020 A3005
RJCC 172130Z VRB02KT 9999 FEW020 M17/M19 Q1017 RMK 1CU020 A3005
RJCC 172200Z 19001KT 9999 MIFG FEW020 M18/M20 Q1017 RMK 1CU020 A3005 MIFG NE-E
RJCC 172230Z 19003KT 9999 FEW020 M18/M20 Q1018 RMK 1CU020 A3006
RJCC 172300Z 18006KT 9999 FEW020 SCT/// M17/M19 Q1018
RJCC 172330Z 10003KT 030V160 9999 FEW020 M14/M16 Q1018 RMK 1CU020 A3007
2017年12月18日00-24UTC 新千歳空港METAR -1

RJCC 180000Z VRB02KT 9999 FEW020 M12/M14 Q1018 RMK 1CU020 A3008
RJCC 180030Z 14002KT 9999 FEW020 M10/M13 Q1018 RMK 1CU020 A3007
RJCC 180100Z 11004KT 070V150 9999 FEW025 M06/M10 Q1018 RMK 1CU025 A3006
RJCC 180130Z 13004KT 9999 FEW030 M05/M09 Q1017 RMK 1CU030 A3004
RJCC 180200Z 12005KT 9999 FEW030 BKN050 M02/M09 Q1017 RMK 1CU030 6CU050 A3004
RJCC 180226Z 19010KT 9999 -SHSN FEW030 BKN045 M01/M09 Q1016 RMK 1CU030 6CU045 A3003
RJCC 180230Z 19011KT 9999 -SHSN FEW030 BKN045 M01/M09 Q1016 RMK 1CU030 6CU045 A3003
RJCC 180300Z 18010KT 9999 FEW030 SCT040 BKN/// M00/M08 Q1016 RMK 1CU030 3CU040 A3002
RJCC 180330Z 20010KT 9999 FEW030 SCT040 BKN/// M00/M08 Q1016 RMK 1CU030 3CU040 A3001
RJCC 180400Z 17009KT 9999 FEW030 BKN040 M01/M07 Q1016 RMK 1CU030 5CU040 A3000
RJCC 180430Z 18004KT 140V230 9999 FEW030 SCT050 M00/M08 Q1015 RMK 2CU030 3CU050 A2999
RJCC 180500Z 18005KT 9999 FEW030 BKN040 BKN/// 00/M07 Q1015
RJCC 180530Z 20007KT 9999 FEW030 SCT050 BKN/// M00/M07 Q1015 RMK 1CU030 3CU050 A2998
RJCC 180600Z 17007KT 9999 FEW030 SCT040 BKN/// M00/M08 Q1015
RJCC 180630Z 17008KT 9999 FEW030 SCT040 BKN/// M01/M07 Q1015 RMK 1CU030 3CU040 A2999
RJCC 180700Z 16005KT 9999 FEW030 SCT040 BKN150 M02/M07 Q1015 RMK 1CU030 3CU040 5AC150 A2999
RJCC 180730Z 14003KT 110V260 9999 FEW030 BKN120 M02/M07 Q1015 RMK 1CU030 7AC120 A2999
RJCC 180800Z 23010KT 9999 FEW030 BKN110 M01/M08 Q1015 RMK 1CU030 7AC110 A2998
RJCC 180830Z 23008KT 9999 FEW030 BKN100 M01/M09 Q1015 RMK 1CU030 7AC100 A2998
RJCC 180900Z 22005KT 9999 FEW030 BKN100 M03/M09 Q1015 RMK 1CU030 7AC100 A2997
RJCC 180930Z 20005KT 160V220 9999 FEW030 BKN090 M02/M08 Q1015 RMK 1CU030 7AC090 A2998
RJCC 181000Z 17010KT 9999 FEW030 BKN080 M02/M08 Q1015 RMK 1CU030 7AC080 A2997
RJCC 181030Z 19007KT 9999 FEW030 BKN080 M02/M08 Q1014 RMK 1CU030 7AC080 A2996
RJCC 181100Z 19005KT 9999 FEW030 BKN080 M02/M08 Q1014 RMK 1CU030 7AC080 A2995
RJCC 181130Z 19008KT 9999 FEW030 BKN070 M02/M07 Q1014 RMK 1CU030 7AC070 A2996
-2
RJCC 181200Z 21008KT 9999 FEW030 BKN060 M01/M07 Q1014 RMK 1CU030 7CU060 A2996
RJCC 181230Z 23005KT 9999 FEW030 BKN070 M02/M07 Q1014 RMK 1CU030 7AC070 A2996
RJCC 181300Z 34004KT 9999 FEW025 BKN080 M03/M06 Q1014 RMK 1CU025 7AC080 A2995
RJCC 181330Z 36005KT 9999 FEW025 BKN090 M04/M06 Q1014 RMK 1CU025 7AC090 A2996
RJCC 181400Z 34006KT 9999 FEW020 SCT035 BKN090 M05/M07 Q1014 RMK 1CU020 4CU035 7AC090 A2996
RJCC 181430Z 33005KT 9999 FEW020 SCT035 BKN100 M06/M08 Q1014 RMK 1CU020 3CU035 5AC100 A2995
RJCC 181500Z 33007KT 9999 FEW020 SCT030 BKN050 M05/M06 Q1014 RMK 1CU020 3CU030 7CU050 A2996
RJCC 181530Z 34004KT 9999 -SHSN FEW020 BKN035 M04/M06 Q1014 RMK 1CU020 7CU035 A2997
RJCC 181600Z 33004KT 9999 -SHSN FEW015 BKN035 M04/M05 Q1014 RMK 1ST015 7CU035 A2997
RJCC 181630Z 21003KT 170V260 9999 -SHSN FEW015 BKN030 M04/M05 Q1014 RMK 1ST015 6CU030 A2997
RJCC 181700Z VRB02KT 9999 -SHSN FEW015 BKN030 M06/M06 Q1015 RMK 1ST015 5CU030 A2997
RJCC 181730Z VRB02KT 9999 FEW010 BKN025 M06/M06 Q1014 RMK 1ST010 5CU025 A2997
RJCC 181800Z VRB02KT 9999 FEW010 SCT025 BKN040 M07/M07 Q1014 RMK 1ST010 3CU025 5CU040 A2996
RJCC 181830Z 36003KT 9999 -SHSN FEW010 SCT025 BKN040 M08/M08 Q1014 RMK 1ST010 3CU025 6CU040 A2997
RJCC 181900Z 22004KT 9999 -SHSN FEW010 BKN040 M08/M08 Q1014 RMK 1ST010 6CU040 A2996
RJCC 181930Z 11003KT 060V130 9999 -SHSN FEW010 BKN040 M07/M07 Q1014 RMK 1ST010 5CU040 A2995
RJCC 182000Z VRB02KT 9999 FEW010 SCT035 M08/M08 Q1014 RMK 1ST010 4CU035 A2995
RJCC 182030Z 22002KT 9999 FEW010 SCT040 M08/M08 Q1014 RMK 1ST010 3CU040 A2995
-3
RJCC 182100Z VRB01KT 9999 FEW010 SCT040 M10/M10 Q1014 RMK 1ST010 3CU040 A2995
RJCC 182130Z VRB02KT 9999 PRFG FEW010 SCT/// M09/M09 Q1014 RMK 1ST010 A2995 FG NE-E
RJCC 182200Z 13003KT 9999 PRFG FEW020 SCT/// M11/M11 Q1013 RMK 1CU020 A2993 FG NE-E
RJCC 182230Z VRB02KT 9999 PRFG FEW010 SCT130 M10/M10 Q1013 RMK 1ST010 4AC130 A2994 FG NE-E
RJCC 182300Z VRB01KT 9999 FEW010 SCT130 BKN/// M09/M09 Q1013 RMK 1ST010 3AC130 A2994
RJCC 182330Z 36004KT 9999 FEW010 SCT130 BKN/// M09/M10 Q1013 RMK 1ST010 3AC130 A2993
2017年12月19日00-24UTC 新千歳空港METAR

RJCC 190000Z 33006KT 9999 FEW020 SCT120 BKN/// M07/M08 Q1013 RMK 1CU020 3AC120 A2993
RJCC 190030Z 35004KT 9999 FEW020 SCT080 BKN120 M07/M07 Q1013 RMK 1CU020 3AC080 7AC120 A2993
RJCC 190100Z 33003KT 9999 FEW020 SCT050 BKN080 M06/M07 Q1013 RMK 1CU020 4CU050 7AC080 A2992
RJCC 190130Z 32004KT 9999 FEW020 BKN080 M05/M07 Q1012 RMK 1CU020 7AC080 A2991
RJCC 190200Z 34005KT 9999 FEW020 BKN100 M05/M07 Q1012 RMK 1CU020 7AC100 A2990
RJCC 190230Z 01005KT 9999 FEW020 BKN090 M04/M08 Q1012 RMK 1CU020 7AC090 A2988 MOD TURB OBS AT 0208Z OVER SIRAO BTN 13000FT AND 12000FT IN DES B738
RJCC 190300Z 36004KT 9999 FEW020 BKN100 M04/M08 Q1012 RMK 1CU020 7AC100 A2988
RJCC 190330Z 01004KT 9999 FEW020 SCT040 BKN090 M04/M08 Q1012 RMK 1CU020 3CU040 7AC090 A2988
RJCC 190400Z 35009KT 9999 -SHSN FEW020 BKN040 M04/M07 Q1012 RMK 1CU020 7CU040 A2988
RJCC 190430Z 35007KT 320V030 6000 -SHSN FEW015 SCT030 BKN040 M04/M07 Q1012 RMK 1ST015 4CU030 6CU040 A2988
RJCC 190500Z 34009KT 9999 -SHSN FEW015 SCT030 BKN040 M03/M08 Q1012 RMK 1ST015 4CU030 6CU040 A2989
RJCC 190530Z 34008KT 9999 FEW015 BKN040 M03/M09 Q1012 RMK 1ST015 5CU040 A2990
RJCC 190600Z 35004KT 9999 FEW015 SCT040 M04/M10 Q1013 RMK 1ST015 4CU040 A2991
RJCC 190630Z VRB01KT 9999 FEW015 SCT050 M04/M10 Q1013 RMK 1ST015 4CU050 A2992
RJCC 190700Z VRB02KT 9999 FEW015 SCT040 M04/M11 Q1014 RMK 1ST015 4CU040 A2995
RJCC 190730Z 05007KT 9999 FEW020 BKN050 M05/M11 Q1014 RMK 1CU020 5CU050 A2996
RJCC 190800Z 34003KT 9999 FEW020 BKN060 M06/M12 Q1015 RMK 1CU020 5CU060 A2997
RJCC 190830Z 22007KT 100V270 9999 -SHSN FEW015 BKN030 M06/M09 Q1015 RMK 1ST015 6CU030 A2998
RJCC 190900Z 26005KT 210V300 9999 -SHSN FEW015 SCT030 BKN040 M05/M08 Q1015 RMK 1ST015 4CU030 6CU040 A3000 5000NW-N
RJCC 190930Z 35004KT 9999 -SHSN FEW010 SCT025 BKN040 M07/M10 Q1016 RMK 1ST010 4CU025 6CU040 A3000 5000NW
RJCC 191000Z 02004KT 9999 -SHSN FEW010 SCT025 M08/M09 Q1016 RMK 1ST010 3CU025 A3001
RJCC 191030Z VRB02KT 9999 FEW010 M07/M09 Q1016 RMK 1ST010 A3001
-2
RJCC 191100Z 20005KT 9999 FEW010 M10/M12 Q1016 RMK 1ST010 A3002
RJCC 191130Z 09003KT 050V130 9999 FEW010 M10/M11 Q1017 RMK 1ST010 A3003
RJCC 191200Z VRB01KT 9999 FEW010 M11/M12 Q1017 RMK 1ST010 A3003
RJCC 191230Z VRB02KT 9999 FEW010 M11/M11 Q1017 RMK 1ST010 A3003
RJCC 191300Z VRB01KT 9999 FEW010 M11/M11 Q1017 RMK 1ST010 A3005
RJCC 191330Z 36003KT 320V070 9999 FEW010 SCT040 M13/M13 Q1017 RMK 1ST010 3CU040 A3005
RJCC 191400Z 20003KT 9999 -SHSN FEW010 BKN050 M13/M14 Q1017 RMK 1ST010 6CU050 A3006
RJCC 191430Z 14003KT 030V180 9999 -SHSN FEW010 BKN050 M13/M14 Q1018 RMK 1ST010 6CU050 A3006
RJCC 191500Z 08003KT 9999 -SHSN FEW010 BKN050 M14/M15 Q1018 RMK 1ST010 7CU050 A3006
RJCC 191530Z 22003KT 140V260 9999 -SHSN FEW010 BKN050 M12/M13 Q1018 RMK 1ST010 6CU050 A3008
RJCC 191600Z VRB02KT 9999 -SHSN FEW010 BKN050 M13/M14 Q1018 RMK 1ST010 6CU050 A3008
RJCC 191630Z VRB02KT 9999 -SHSN FEW010 BKN050 M12/M14 Q1018 RMK 1ST010 6CU050 A3009
RJCC 191700Z VRB01KT 9999 -SHSN FEW010 BKN050 M12/M14 Q1019 RMK 1ST010 6CU050 A3010
RJCC 191730Z VRB02KT 9999 -SHSN FEW010 BKN050 M13/M14 Q1019 RMK 1ST010 7CU050 A3010
RJCC 191800Z 09003KT 020V110 9999 -SHSN FEW010 SCT040 BKN050 M12/M13 Q1019 RMK 1ST010 3CU040 6CU050 A3011
RJCC 191830Z 00000KT 9999 -SHSN FEW010 SCT040 BKN050 M11/M13 Q1019 RMK 1ST010 3CU040 6CU050 A3011
RJCC 191900Z 19003KT 9999 -SHSN FEW010 SCT040 BKN050 M12/M13 Q1019 RMK 1ST010 3CU040 6CU050 A3012
RJCC 191930Z VRB02KT 9999 -SHSN FEW010 SCT040 BKN060 M11/M12 Q1020 RMK 1ST010 3CU040 6CU060 A3013
RJCC 192000Z 18004KT 9999 -SHSN FEW010 BKN060 M09/M12 Q1020 RMK 1ST010 7CU060 A3014
RJCC 192030Z 22006KT 9999 -SHSN FEW010 SCT040 BKN060 M07/M12 Q1021 RMK 1ST010 3CU040 7CU060 A3015
-3
RJCC 192100Z 24006KT 9999 -SHSN FEW010 SCT040 BKN060 M08/M11 Q1020 RMK 1ST010 3CU040 7CU060 A3015
RJCC 192130Z 13004KT 090V190 9999 -SHSN FEW010 SCT040 BKN060 M07/M11 Q1021 RMK 1ST010 3CU040 6CU060 A3016
RJCC 192200Z 15004KT 9999 -SHSN FEW010 SCT040 BKN060 M08/M11 Q1021 RMK 1ST010 3CU040 7CU060 A3017
RJCC 192230Z 19005KT 9999 -SHSN FEW010 SCT040 BKN050 M08/M11 Q1021 RMK 1ST010 3CU040 6CU050 A3017 5000W
RJCC 192300Z 18003KT 090V210 9999 -SHSN FEW015 SCT040 BKN050 M07/M11 Q1021 RMK 1ST015 4CU040 5CU050 A3017
RJCC 192330Z 14003KT 090V180 9999 FEW015 SCT050 M07/M11 Q1022 RMK 1ST015 3CU050 A3018
2017年12月20日00-24UTC 新千歳空港METAR -1

RJCC 200000Z 14004KT 110V170 9999 FEW015 M07/M12 Q1021 RMK 1ST015 A3018
RJCC 200030Z 16004KT 110V220 9999 FEW020 SCT050 M04/M13 Q1021 RMK 1CU020 3CU050 A3018
RJCC 200100Z 21007KT 9999 FEW020 SCT050 M04/M13 Q1022 RMK 1CU020 4CU050 A3018
RJCC 200130Z 19005KT 160V230 9999 FEW020 BKN050 M04/M13 Q1021 RMK 1CU020 6CU050 A3017
RJCC 200200Z 27005KT 200V310 9999 FEW020 BKN045 M03/M12 Q1021 RMK 1CU020 6CU045 A3016
RJCC 200230Z 02003KT 340V070 9999 FEW020 BKN040 M03/M11 Q1021 RMK 1CU020 6CU040 A3016
RJCC 200300Z VRB03KT 9999 FEW020 BKN040 M02/M12 Q1021 RMK 1CU020 6CU040 A3015
RJCC 200323Z 23010KT 9999 FEW020 BKN040 M02/M12 Q1021 RMK 1CU020 6CU040 A3015
RJCC 200330Z 23009KT 9999 FEW020 BKN040 M02/M11 Q1021 RMK 1CU020 7CU040 A3015
RJCC 200400Z 23009KT 200V260 9999 FEW020 BKN040 M02/M11 Q1020 RMK 1CU020 7CU040 A3015
RJCC 200430Z 02005KT 350V070 9999 FEW020 BKN040 M03/M11 Q1020 RMK 1CU020 7CU040 A3014
RJCC 200500Z 01005KT 9999 FEW020 BKN040 M03/M10 Q1020 RMK 1CU020 6CU040 A3015
RJCC 200530Z 35007KT 9999 FEW020 BKN040 M03/M10 Q1021 RMK 1CU020 6CU040 A3016
RJCC 200600Z 36002KT 9999 FEW020 BKN040 M03/M11 Q1021 RMK 1CU020 5CU040 A3016
RJCC 200630Z VRB01KT 9999 FEW020 BKN040 M03/M11 Q1021 RMK 1CU020 5CU040 A3017
RJCC 200700Z VRB03KT 9999 FEW020 M04/M11 Q1021 RMK 1CU020 A3018
RJCC 200730Z 21005KT 180V260 9999 FEW020 M04/M12 Q1022 RMK 1CU020 A3018
RJCC 200800Z 16003KT 130V220 9999 FEW020 M05/M12 Q1022 RMK 1CU020 A3018
RJCC 200830Z 23008KT 9999 FEW020 M05/M11 Q1022 RMK 1CU020 A3018
RJCC 200900Z 22005KT 9999 FEW020 M05/M11 Q1022 RMK 1CU020 A3019
RJCC 200930Z 20006KT 9999 FEW020 M05/M12 Q1022 RMK 1CU020 A3020
RJCC 201000Z VRB02KT 9999 FEW020 M05/M12 Q1022 RMK 1CU020 A3021
RJCC 201030Z VRB02KT 9999 FEW020 M07/M12 Q1023 RMK 1CU020 A3021
RJCC 201100Z VRB02KT 9999 FEW020 M10/M13 Q1022 RMK 1CU020 A3021
RJCC 201130Z 10003KT 080V150 9999 FEW020 M11/M14 Q1022 RMK 1CU020 A3020
-2
RJCC 201200Z VRB02KT 9999 FEW020 SCT050 M09/M13 Q1023 RMK 1CU020 3CU050 A3021
RJCC 201230Z 12003KT 090V160 9999 FEW020 M12/M14 Q1023 RMK 1CU020 A3021
RJCC 201300Z 14003KT 9999 FEW020 M10/M12 Q1023 RMK 1CU020 A3021
RJCC 201330Z 12002KT 9999 FEW020 M12/M14 Q1023 RMK 1CU020 A3021
RJCC 201400Z VRB01KT 9999 FEW020 M13/M15 Q1023 RMK 1CU020 A3021
RJCC 201430Z 23002KT 9999 FEW020 M13/M14 Q1023 RMK 1CU020 A3021
RJCC 201500Z 19002KT 9999 FEW020 M13/M14 Q1023 RMK 1CU020 A3021
RJCC 201530Z 16002KT 9999 FEW020 M14/M15 Q1023 RMK 1CU020 A3021
RJCC 201600Z 14003KT 110V180 9999 FEW020 M12/M13 Q1022 RMK 1CU020 A3021
RJCC 201630Z 18004KT 9999 FEW020 M13/M15 Q1022 RMK 1CU020 A3020
RJCC 201700Z 11002KT 9999 FEW020 M13/M14 Q1023 RMK 1CU020 A3021
RJCC 201730Z 16003KT 120V190 9999 FEW020 M13/M15 Q1022 RMK 1CU020 A3021
RJCC 201800Z 17003KT 120V220 9999 FEW020 M14/M15 Q1022 RMK 1CU020 A3020
RJCC 201830Z VRB02KT 9999 FEW020 M14/M16 Q1022 RMK 1CU020 A3020
RJCC 201900Z 11003KT 9999 FEW020 M14/M14 Q1022 RMK 1CU020 A3020
RJCC 201930Z 15004KT 130V200 9999 FEW020 M13/M14 Q1022 RMK 1CU020 A3019
RJCC 202000Z VRB01KT 9999 FEW020 M13/M15 Q1022 RMK 1CU020 A3019
RJCC 202030Z VRB03KT 9999 FEW020 M13/M14 Q1022 RMK 1CU020 A3019
RJCC 202100Z 16003KT 130V200 9999 FEW020 M13/M15 Q1022 RMK 1CU020 A3020
RJCC 202130Z 15003KT 9999 FEW020 M14/M15 Q1022 RMK 1CU020 A3020
RJCC 202200Z 16003KT 130V230 9999 FEW020 SCT050 M14/M15 Q1022 RMK 1CU020 3CU050 A3020
RJCC 202230Z 15004KT 9999 FEW030 M14/M16 Q1022 RMK 1CU030 A3020
RJCC 202300Z 18004KT 9999 FEW030 M13/M15 Q1022 RMK 1CU030 A3021
RJCC 202330Z 23008KT 9999 FEW030 M04/M08 Q1023 RMK 1CU030 A3021
2017年12月21日00-24UTC 新千歳空港METAR -1

RJCC 210000Z 13004KT 100V170 9999 FEW030 SCT050 M07/M11 Q1023 RMK 1CU030 3CU050 A3022
RJCC 210030Z 21006KT 9999 FEW025 SCT050 M02/M09 Q1023 RMK 1CU025 3CU050 A3022
RJCC 210100Z 20005KT 9999 FEW025 M00/M09 Q1023 RMK 1CU025 A3021
RJCC 210130Z 24006KT 200V270 9999 FEW025 SCT050 00/M09 Q1022 RMK 1CU025 3CU050 A3019
RJCC 210200Z 24009KT 9999 FEW025 00/M09 Q1022 RMK 1CU025 A3018
RJCC 210230Z 24009KT 200V300 9999 FEW025 SCT045 M00/M09 Q1021 RMK 1CU025 4CU045 A3017
RJCC 210300Z 22006KT 180V240 9999 FEW025 SCT050 01/M08 Q1021 RMK 1CU025 3CU050 A3016
RJCC 210330Z 24010KT 9999 FEW025 SCT050 02/M07 Q1020 RMK 1CU025 3CU050 A3014
RJCC 210400Z 23012KT 9999 VCSH FEW015 BKN050 02/M07 Q1020 RMK 1ST015 5CU050 A3013 SH W
RJCC 210430Z 25012KT 210V270 9999 -SHSN FEW015 BKN045 02/M06 Q1020 RMK 1ST015 5CU045 A3013
RJCC 210500Z 24007KT 9999 -SHSN FEW015 BKN040 02/M07 Q1020 RMK 1ST015 5CU040 A3013
RJCC 210530Z 27011KT 9999 FEW015 SCT040 02/M06 Q1020 RMK 1ST015 3CU040 A3013
RJCC 210600Z 23009KT 9999 FEW025 SCT045 02/M06 Q1020 RMK 1CU025 3CU045 A3014
RJCC 210630Z 21005KT 9999 FEW025 SCT045 01/M05 Q1020 RMK 1CU025 4CU045 A3014
RJCC 210700Z 18005KT 9999 FEW025 BKN045 01/M06 Q1020 RMK 1CU025 5CU045 A3014
RJCC 210730Z 17007KT 140V200 9999 FEW025 BKN040 01/M06 Q1020 RMK 1CU025 6CU040 A3015
RJCC 210800Z 16008KT 9999 FEW025 BKN040 M01/M07 Q1020 RMK 1CU025 5CU040 A3014
RJCC 210830Z 14005KT 9999 FEW025 SCT040 M00/M06 Q1020 RMK 1CU025 3CU040 A3014
RJCC 210900Z 14007KT 110V180 9999 FEW020 BKN050 01/M06 Q1020 RMK 1CU020 5CU050 A3014
RJCC 210930Z 15007KT 9999 FEW020 BKN050 M00/M06 Q1020 RMK 1CU020 5CU050 A3014
RJCC 211000Z 14006KT 9999 FEW020 BKN060 00/M06 Q1020 RMK 1CU020 5CU060 A3014
RJCC 211030Z 18006KT 130V230 9999 FEW020 BKN060 01/M06 Q1020 RMK 1CU020 5CU060 A3014
RJCC 211100Z VRB02KT 9999 FEW020 BKN050 02/M06 Q1020 RMK 1CU020 6CU050 A3013
RJCC 211130Z 21005KT 9999 FEW020 BKN050 02/M05 Q1020 RMK 1CU020 6CU050 A3014
-2
RJCC 211200Z 22008KT 9999 FEW020 SCT050 02/M05 Q1020 RMK 1CU020 4CU050 A3013
RJCC 211230Z 20004KT 120V240 9999 FEW020 BKN050 02/M05 Q1020 RMK 1CU020 5CU050 A3012
RJCC 211300Z VRB01KT 9999 FEW020 BKN050 01/M05 Q1020 RMK 1CU020 6CU050 A3013
RJCC 211330Z 32005KT 9999 FEW020 BKN050 M01/M04 Q1020 RMK 1CU020 6CU050 A3014
RJCC 211400Z 32006KT 9999 FEW020 BKN050 M01/M04 Q1020 RMK 1CU020 6CU050 A3015
RJCC 211430Z 35006KT 9999 -SHSN FEW020 BKN050 M01/M05 Q1021 RMK 1CU020 7CU050 A3015
RJCC 211500Z 32004KT 9999 FEW020 BKN050 M01/M05 Q1021 RMK 1CU020 7CU050 A3015
RJCC 211530Z 01003KT 320V080 9999 -SHSN FEW020 BKN050 M01/M04 Q1020
RJCC 211600Z 03001KT 9999 -SHSN FEW020 BKN050 M01/M04 Q1021 RMK 1CU020 7CU050 A3015
RJCC 211630Z VRB01KT 9999 -SHSN FEW020 BKN050 M01/M05 Q1021 RMK 1CU020 7CU050 A3016
RJCC 211700Z 35003KT 9999 -SHSN FEW020 BKN050 M01/M05 Q1021 RMK 1CU020 7CU050 A3016
RJCC 211730Z 05002KT 9999 -SHSN FEW020 BKN050 M01/M04 Q1021 RMK 1CU020 7CU050 A3016
RJCC 211800Z 08002KT 9999 -SHSN FEW020 BKN050 M01/M04 Q1021 RMK 1CU020 7CU050 A3016
RJCC 211830Z VRB01KT 9999 -SHSN FEW020 SCT030 BKN050 M02/M03 Q1021 RMK 1CU020 3CU030 7CU050 A3016
RJCC 211900Z 26001KT 9999 -SHSN FEW020 SCT030 BKN050 M02/M03 Q1021 RMK 1CU020 3CU030 7CU050 A3016
RJCC 211930Z 22004KT 9999 -SHSN FEW020 BKN050 M02/M03 Q1021 RMK 1CU020 7CU050 A3016
RJCC 212000Z 24003KT 9999 -SHSN FEW020 BKN040 M02/M03 Q1021 RMK 1CU020 7CU040 A3017
RJCC 212030Z VRB01KT 9999 -SHSN FEW020 BKN040 M02/M03 Q1021 RMK 1CU020 7CU040 A3018
RJCC 212100Z VRB01KT 9999 FEW020 BKN045 M02/M03 Q1022 RMK 1CU020 7CU045 A3018
RJCC 212130Z 20002KT 9999 FEW020 BKN050 M02/M03 Q1022 RMK 1CU020 7CU050 A3018
RJCC 212200Z 23003KT 9999 FEW020 BKN050 M02/M03 Q1022 RMK 1CU020 7CU050 A3019
RJCC 212230Z VRB01KT 9999 FEW020 BKN050 M02/M03 Q1022 RMK 1CU020 7CU050 A3020
RJCC 212300Z VRB01KT 9999 FEW020 BKN050 M02/M03 Q1022 RMK 1CU020 5CU050 A3020
RJCC 212330Z 14003KT 100V190 9999 FEW020 SCT050 M02/M03 Q1022 RMK 1CU020 4CU050 A3021
2017年12月22日00-24UTC 新千歳空港METAR -1

RJCC 220000Z 14002KT 9999 FEW025 BKN050 M02/M03 Q1022 RMK 1CU025 7CU050 A3021
RJCC 220030Z 17004KT 150V220 9999 FEW025 BKN050 M01/M02 Q1023 RMK 1CU025 7CU050 A3021
RJCC 220100Z 12003KT 9999 FEW030 BKN050 00/M02 Q1022 RMK 1CU030 7CU050 A3020
RJCC 220130Z 11003KT 060V150 9999 FEW030 BKN050 01/M02 Q1022 RMK 1CU030 7CU050 A3018
RJCC 220200Z 14003KT 090V250 9999 FEW030 BKN050 02/M03 Q1021 RMK 1CU030 7CU050 A3017
RJCC 220230Z VRB01KT 9999 FEW030 BKN050 02/M03 Q1021 RMK 1CU030 7CU050 A3016
RJCC 220300Z 14004KT 090V170 9999 FEW030 BKN050 03/M04 Q1020 RMK 1CU030 7CU050 A3014
RJCC 220330Z 16008KT 9999 FEW030 BKN040 03/M04 Q1020 RMK 1CU030 7CU040 A3013
RJCC 220400Z 15007KT 9999 FEW025 BKN040 03/M04 Q1020 RMK 1CU025 6CU040 A3012
RJCC 220430Z 12006KT 9999 FEW025 BKN040 03/M05 Q1020 RMK 1CU025 6CU040 A3012
RJCC 220500Z 13006KT 9999 FEW025 BKN040 04/M04 Q1019 RMK 1CU025 5CU040 A3012
RJCC 220530Z 14007KT 9999 FEW025 BKN050 03/M03 Q1019 RMK 1CU025 6CU050 A3012
RJCC 220600Z 12007KT 9999 FEW025 BKN040 03/M04 Q1019 RMK 1CU025 6CU040 A3011
RJCC 220630Z 09003KT 050V140 9999 FEW025 BKN040 03/M03 Q1019 RMK 1CU025 6CU040 A3012
RJCC 220700Z 09004KT 9999 FEW025 SCT040 02/M03 Q1019 RMK 1CU025 3CU040 A3011
RJCC 220730Z 15003KT 9999 FEW025 01/M05 Q1019 RMK 1CU025 A3011
RJCC 220800Z 15002KT 9999 FEW025 M01/M04 Q1019 RMK 1CU025 A3011
RJCC 220830Z 09004KT 9999 FEW025 M02/M04 Q1019 RMK 1CU025 A3010
RJCC 220900Z 12004KT 090V150 9999 FEW025 SCT045 M02/M03 Q1019 RMK 1CU025 3CU045 A3010
RJCC 220930Z 13003KT 9999 FEW025 M02/M05 Q1019 RMK 1CU025 A3010
RJCC 221000Z 08003KT 030V120 9999 FEW025 M03/M04 Q1019 RMK 1CU025 A3010
RJCC 221030Z 18003KT 120V250 9999 FEW025 M04/M06 Q1018 RMK 1CU025 A3009
RJCC 221100Z 13003KT 090V200 9999 FEW025 M04/M05 Q1018 RMK 1CU025 A3008
RJCC 221130Z 17003KT 100V230 9999 FEW025 M03/M05 Q1018 RMK 1CU025 A3008
RJCC 221200Z 17004KT 110V260 9999 FEW025 M05/M07 Q1018 RMK 1CU025 A3008
RJCC 221230Z 17005KT 9999 FEW025 M07/M08 Q1018 RMK 1CU025 A3008
-2
RJCC 221300Z 10003KT 050V170 9999 FEW025 M05/M07 Q1018 RMK 1CU025 A3006
RJCC 221330Z VRB02KT 9999 FEW025 SCT050 M06/M07 Q1017 RMK 1CU025 3CU050 A3006
RJCC 221400Z 21003KT 9999 FEW025 SCT070 M06/M07 Q1017 RMK 1CU025 4AC070 A3005
RJCC 221430Z 36003KT 9999 FEW025 BKN080 M07/M08 Q1017 RMK 1CU025 5AC080 A3004
RJCC 221500Z VRB02KT 9999 FEW025 SCT080 BKN160 M06/M07 Q1017 RMK 1CU025 3AC080 6AC160 A3003
RJCC 221530Z VRB02KT 9999 FEW025 SCT050 BKN140 M06/M07 Q1016 RMK 1CU025 3CU050 6AC140 A3002
RJCC 221600Z 23003KT 9999 FEW025 BKN045 BKN130 M06/M07 Q1016 RMK 1CU025 5CU045 6AC130 A3001
RJCC 221630Z 19002KT 9999 FEW025 BKN040 M05/M06 Q1016 RMK 1CU025 7CU040 A3001
RJCC 221700Z 19002KT 9999 FEW025 BKN035 M04/M05 Q1016 RMK 1CU025 7CU035 A3000
RJCC 221730Z 22003KT 9999 FEW025 BKN035 BKN050 M04/M05 Q1015 RMK 1CU025 5CU035 7CU050 A3000
RJCC 221800Z VRB01KT 9999 -SHSN FEW018 BKN030 BKN045 M03/M04 Q1015 RMK 1ST018 5CU030 7CU045 A2999
RJCC 221830Z VRB02KT 9999 -SHSNRA FEW015 BKN025 M03/M04 Q1015 RMK 1ST015 6CU025 A2997
RJCC 221900Z 17002KT 9999 -SHSNRA FEW015 BKN020 BKN040 M02/M03 Q1014 RMK 1ST015 6CU020 7CU040 A2997
RJCC 221930Z 18004KT 9999 -SHRASN FEW012 BKN017 BKN070 M02/M03 Q1014 RMK 1ST012 6ST017 7AC070 A2995
RJCC 222000Z VRB01KT 9999 FEW012 BKN015 M03/M03 Q1014 RMK 1ST012 7ST015 A2995
RJCC 222030Z 29003KT 250V330 9999 FEW012 BKN015 M01/M02 Q1014 RMK 1ST012 7ST015 A2996
RJCC 222100Z VRB02KT 9999 FEW012 BKN015 BKN025 M02/M02 Q1014 RMK 1ST012 5ST015 6CU025 A2995
RJCC 222130Z 16002KT 9999 FEW012 BKN015 BKN025 M02/M02 Q1014 RMK 1ST012 5ST015 6CU025 A2995
RJCC 222200Z 16003KT 9999 -SHRASN FEW015 SCT020 BKN060 M02/M02 Q1014 RMK 1ST015 3CU020 6CU060 A2995
RJCC 222230Z 23002KT 9999 FEW015 SCT020 BKN040 M02/M02 Q1014 RMK 1ST015 3CU020 6CU040 A2996
RJCC 222300Z VRB02KT 9999 FEW015 BKN035 M02/M02 Q1014 RMK 1ST015 6CU035 A2996
RJCC 222330Z 15003KT 9999 FEW015 BKN035 M01/M02 Q1014 RMK 1ST015 6CU035 A2997
2017年12月23日00-24UTC 新千歳空港METAR -1

RJCC 230000Z 16004KT 9999 FEW015 SCT035 00/M01 Q1014 RMK 1ST015 3CU035 A2996
RJCC 230030Z 15005KT 9999 FEW015 SCT070 02/00 Q1014 RMK 1ST015 3AC070 A2996
RJCC 230100Z 14004KT 090V180 9999 FEW025 BKN060 03/01 Q1014 RMK 1CU025 6CU060 A2996
RJCC 230130Z 01004KT 9999 FEW025 BKN060 03/01 Q1014 RMK 1CU025 6CU060 A2996
RJCC 230200Z 01004KT 9999 FEW025 BKN060 04/01 Q1014 RMK 1CU025 5CU060 A2995
RJCC 230230Z 36012KT 9999 FEW025 SCT060 03/00 Q1014 RMK 1CU025 4CU060 A2995
RJCC 230300Z 35007KT 9999 -SHRA FEW009 SCT010 BKN060 03/01 Q1014 RMK 1ST009 3ST010 5CU060 A2996
RJCC 230330Z 36006KT 9999 FEW010 SCT030 03/01 Q1014 RMK 1ST010 3CU030 A2996
RJCC 230400Z 36007KT 9999 FEW015 SCT030 03/00 Q1014 RMK 1ST015 3CU030 A2996
RJCC 230430Z 36009KT 9999 FEW015 BKN030 03/M00 Q1015 RMK 1ST015 6CU030 A2997
RJCC 230500Z 36010KT 9999 FEW015 BKN030 03/M01 Q1015 RMK 1ST015 6CU030 A2998
RJCC 230530Z 36015KT 9999 FEW025 SCT045 03/M02 Q1015 RMK 1CU025 3CU045 A2999
RJCC 230600Z 35015KT 9999 FEW025 SCT045 02/M02 Q1016 RMK 1CU025 3CU045 A3001
RJCC 230630Z 35010KT 9999 FEW025 BKN045 02/M02 Q1016 RMK 1CU025 6CU045 A3002
RJCC 230700Z 36010KT 9999 FEW025 SCT050 01/M03 Q1017 RMK 1CU025 3CU050 A3003
RJCC 230730Z 01008KT 9999 FEW025 01/M03 Q1017 RMK 1CU025 A3005
RJCC 230800Z 01006KT 9999 FEW020 01/M03 Q1017 RMK 1CU020 A3006
RJCC 230830Z 35007KT 9999 FEW020 M00/M03 Q1018 RMK 1CU020 A3006
RJCC 230900Z 34004KT 9999 FEW020 BKN045 M00/M02 Q1018 RMK 1CU020 5CU045 A3007
RJCC 230930Z VRB02KT 9999 FEW020 BKN050 M01/M02 Q1018 RMK 1CU020 6CU050 A3008
RJCC 231000Z 22003KT 160V260 9999 FEW020 BKN050 00/M02 Q1019 RMK 1CU020 6CU050 A3009
RJCC 231030Z VRB03KT 9999 FEW020 BKN050 M00/M02 Q1019 RMK 1CU020 7CU050 A3009
RJCC 231100Z 08003KT 9999 FEW015 BKN050 M01/M02 Q1019 RMK 1ST015 7CU050 A3009
RJCC 231130Z VRB02KT 9999 FEW015 BKN050 M01/M02 Q1019 RMK 1ST015 7CU050 A3010
RJCC 231200Z 16003KT 9000 FEW015 BKN050 M02/M02 Q1019 RMK 1ST015 6CU050 A3010
-2
RJCC 231230Z 21003KT 8000 FEW015 BKN050 M02/M02 Q1019 RMK 1ST015 5CU050 A3011
RJCC 231300Z VRB02KT 7000 FEW015 SCT050 M02/M02 Q1019 RMK 1ST015 4CU050 A3011
RJCC 231330Z 15003KT 6000 FEW015 M03/M03 Q1020 RMK 1ST015 A3012
RJCC 231400Z 08003KT 5000 R19R/P2000N R19L/P2000N BR FEW010 M04/M04 Q1020
RJCC 231430Z 21002KT 5000 BR FEW010 M05/M05 Q1020 RMK 1ST010 A3012
RJCC 231500Z 17002KT 5000 BR FEW010 M05/M05 Q1020 RMK 1ST010 A3012
RJCC 231530Z 00000KT 5000 R01L/P2000N R01R/P2000N BR FEW010 M06/M06 Q1020 RMK 1ST010 A3012
RJCC 231600Z 00000KT 5000 R01L/P2000N R01R/P2000N PRFG BR FEW010 M06/M06 Q1020 RMK 1ST010 A3012 FG E
RJCC 231630Z VRB01KT 5000 R19R/0700VP2000U R19L/0800VP2000D PRFG BR FEW010 M06/M06 Q1020 RMK 1ST010 A3013 FG E
RJCC 231700Z VRB01KT 5000 BCFG BR FEW010 M06/M06 Q1020 RMK 1ST010 A3013
RJCC 231730Z 00000KT 4000 R19R/0650VP2000D R19L/0650VP2000U BCFG BR FEW010 M07/M07 Q1020 RMK 1ST010 A3012
RJCC 231800Z 00000KT 3000 R19R/0225V0500N R19L/P2000N BCFG BR FEW001 M07/M07 Q1019 RMK 1ST001 A3011
RJCC 231830Z 26001KT 4000 R19R/0550VP2000D R19L/0350V0600N BCFG BR FEW001 M08/M08 Q1019 RMK 1ST001 A3011
RJCC 231900Z 33003KT 280V020 5000 BR FEW010 M08/M08 Q1019 RMK 1ST010 A3011
RJCC 231930Z VRB01KT 7000 FEW010 M08/M08 Q1019 RMK 1ST010 A3010
RJCC 232000Z VRB02KT 8000 FEW010 M08/M09 Q1019 RMK 1ST010 A3010
RJCC 232030Z 36002KT 9999 FEW015 BKN050 M08/M09 Q1019 RMK 1ST015 5CU050 A3010
RJCC 232100Z 19003KT 9999 FEW015 BKN050 M07/M07 Q1020 RMK 1ST015 7CU050 A3012
RJCC 232130Z VRB01KT 9999 FEW015 BKN050 M06/M07 Q1020 RMK 1ST015 7CU050 A3013
RJCC 232200Z 07002KT 9999 PRFG FEW015 BKN050 M06/M07 Q1019 RMK 1ST015 7CU050 A3012 FG NE
RJCC 232230Z 09001KT 9999 FEW015 SCT050 M06/M07 Q1019 RMK 1ST015 4CU050 A3011
RJCC 232300Z VRB02KT 9999 FEW015 SCT050 BKN/// M05/M07 Q1019
RJCC 232330Z 19005KT 140V210 9999 FEW015 BKN050 M03/M04 Q1019 RMK 1ST015 6CU050 A3011
2017年12月24日00-24UTC 新千歳空港METAR -1

RJCC 240000Z 23003KT 9999 FEW015 SCT040 BKN060 M03/M04 Q1019 RMK 1ST015 3CU040 7CU060 A3011
RJCC 240030Z 36001KT 9999 FEW015 SCT035 BKN050 M02/M04 Q1019 RMK 1ST015 3CU035 7CU050 A3010
RJCC 240100Z VRB01KT 9999 FEW015 SCT030 BKN040 M01/M04 Q1019 RMK 1ST015 4CU030 7CU040 A3010
RJCC 240130Z 26003KT 200V330 9999 FEW015 BKN030 00/M04 Q1018 RMK 1ST015 5CU030 A3008
RJCC 240200Z VRB02KT 9999 FEW020 SCT050 BKN170 02/M04 Q1018 RMK 1ST020 3CU050 7AC170 A3008
RJCC 240230Z 12008KT 9999 FEW030 BKN170 BKN/// 03/M04 Q1017 RMK 1CU030 6AC170 A3006
RJCC 240300Z 12008KT 9999 FEW020 BKN150 BKN/// 04/M02 Q1017 RMK 1CU020 5AC150 A3004
RJCC 240330Z 12008KT 9999 FEW020 BKN150 04/M02 Q1016 RMK 1CU020 7AC150 A3003
RJCC 240400Z 17009KT 9999 FEW020 SCT050 BKN150 05/M02 Q1016 RMK 1CU020 3CU050 5AC150 A3001
RJCC 240430Z 18011KT 9999 FEW020 SCT060 BKN130 04/M02 Q1016 RMK 1CU020 3CU060 7AC130 A3001
RJCC 240500Z 17010KT 9999 FEW020 BKN080 05/M01 Q1015 RMK 1CU020 7AC080 A3000
RJCC 240530Z 17008KT 9999 FEW020 BKN070 04/M01 Q1015 RMK 1CU020 7AC070 A3000
RJCC 240600Z 14009KT 9999 -SHRA FEW020 SCT030 BKN050 04/M00 Q1015 RMK 1CU020 3CU030 7CU050 A3000
RJCC 240612Z 15015KT 4900 -SHRA BR FEW015 SCT025 BKN040 03/01 Q1016 RMK 1ST015 4CU025 7CU040 A3001
RJCC 240630Z 13009KT 4500 -SHRA BR FEW010 SCT025 BKN035 02/02 Q1015 RMK 1ST010 4CU025 6CU035 A3000
RJCC 240700Z 13008KT 4500 -SHRA BR FEW010 SCT025 BKN035 02/02 Q1015 RMK 1ST010 4CU025 6CU035 A2999
RJCC 240718Z 13007KT 5000 -SHRA BR FEW010 SCT035 BKN050 02/02 Q1015 RMK 1ST010 4CU035 6CU050 A2998
RJCC 240730Z 13007KT 5000 -SHRA BR FEW010 SCT040 BKN050 02/02 Q1015 RMK 1ST010 3CU040 6CU050 A2998
RJCC 240800Z 13005KT 5000 -SHRA BR FEW015 SCT030 BKN040 02/02 Q1014 RMK 1ST015 3CU030 6CU040 A2996
RJCC 240830Z 13005KT 5000 -SHRA BR FEW015 SCT030 BKN040 02/02 Q1014 RMK 1ST015 4CU030 6CU040 A2995
RJCC 240900Z 13008KT 6000 -SHRA FEW015 SCT040 BKN080 02/02 Q1013 RMK 1ST015 3CU040 7AC080 A2992
RJCC 240930Z 13008KT 8000 -SHRA FEW015 SCT040 BKN050 02/02 Q1012 RMK 1ST015 3CU040 7CU050 A2991
RJCC 241000Z 13008KT 6000 -SHRA FEW015 SCT030 BKN040 02/02 Q1012 RMK 1ST015 3CU030 7CU040 A2989
RJCC 241030Z 13007KT 6000 -SHRA FEW015 SCT030 BKN040 03/02 Q1011 RMK 1ST015 4CU030 7CU040 A2986
RJCC 241100Z 13010KT 8000 -SHRA FEW015 BKN030 BKN040 04/02 Q1010 RMK 1ST015 5CU030 7CU040 A2984
RJCC 241130Z 13008KT 8000 -SHRA FEW015 SCT030 BKN045 03/02 Q1009 RMK 1ST015 4CU030 7CU045 A2981
RJCC 241200Z 14007KT 8000 -SHRA FEW015 SCT035 BKN050 03/02 Q1008 RMK 1ST015 4CU035 7CU050 A2979
RJCC 241230Z 14009KT 9999 -SHRA FEW015 SCT035 BKN050 04/02 Q1007 RMK 1ST015 3CU035 7CU050 A2976
RJCC 241300Z 14009KT 9999 -SHRA FEW015 BKN020 BKN040 04/02 Q1006 RMK 1ST015 5CU020 7CU040 A2972 P/FR
RJCC 241330Z 16008KT 9999 -SHRA FEW015 BKN020 04/03 Q1005 RMK 1ST015 7CU020 A2970
RJCC 241400Z 15010KT 9999 -SHRA FEW010 BKN018 05/03 Q1004 RMK 1ST010 7ST018 A2967 P/FR
RJCC 241430Z 14014KT 9999 -SHRA FEW010 BKN012 BKN015 06/05 Q1002 RMK 1ST010 5ST012 7ST015 A2961 P/FR
RJCC 241500Z 14018KT 9999 -SHRA FEW010 SCT015 BKN018 07/05 Q1001 RMK 1ST010 4ST015 7ST018 A2958 P/FR
RJCC 241530Z 15014KT 9999 -SHRA FEW010 BKN012 BKN015 07/05 Q1000 RMK 1ST010 5ST012 7ST015 A2954 P/FR
RJCC 241600Z 14015KT 9999 FEW010 BKN012 07/06 Q0998 RMK 1ST010 7ST012 A2950 P/FR
RJCC 241630Z 15017KT 6000 -SHRA FEW005 SCT007 BKN010 07/07 Q0997 RMK 1ST005 4ST007 7ST010 A2947
RJCC 241700Z 15020KT 3000 -SHRA BR FEW005 BKN007 BKN012 08/07 Q0996 RMK 1ST005 5ST007 7ST012 A2942 P/FR
RJCC 241730Z 15019KT 5000 -SHRA BR FEW005 BKN008 BKN012 08/08 Q0995 RMK 1ST005 5ST008 7ST012 A2939 P/FR
RJCC 241800Z 15018KT 5000 -SHRA BR FEW005 BKN012 08/07 Q0994 RMK 1ST005 7ST012 A2935 P/FR
RJCC 241830Z 16018KT 6000 -SHRA FEW005 BKN007 BKN012 08/08 Q0993 RMK 1ST005 5ST007 7ST012 A2933
RJCC 241900Z 16021KT 4500 -SHRA BR FEW003 SCT004 BKN007 09/09 Q0992 RMK 1ST003 4ST004 6ST007 A2930
RJCC 241930Z 16021KT 5000 -SHRA BR FEW005 BKN035 08/07 Q0991 RMK 1ST005 7CU035 A2928
-3
RJCC 242000Z 16019KT 6000 -SHRA FEW010 BKN040 08/06 Q0990 RMK 1ST010 7CU040 A2926
RJCC 242030Z 17017KT 5000 -SHRA BR FEW010 BKN040 07/06 Q0990 RMK 1ST010 7CU040 A2924
RJCC 242100Z 16015KT 4500 -SHRA BR FEW010 SCT020 BKN040 07/07 Q0989 RMK 1ST010 4CU020 7CU040 A2921 P/FR
RJCC 242130Z 16017KT 4000 -SHRA BR FEW010 SCT020 BKN040 07/07 Q0988 RMK 1ST010 3CU020 7CU040 A2919
RJCC 242200Z 17018KT 4500 -SHRA BR FEW010 SCT015 BKN035 07/07 Q0987 RMK 1ST010 3ST015 7CU035 A2916
RJCC 242217Z 17022KT 7000 -SHRA FEW008 BKN010 BKN030 08/07 Q0987 RMK 1ST008 5ST010 7CU030 A2916
RJCC 242230Z 17019KT 9999 -SHRA FEW010 BKN030 07/06 Q0987 RMK 2ST010 7CU030 A2915
RJCC 242300Z 16018KT 9999 -SHRA FEW010 BKN025 BKN090 07/07 Q0985 RMK 1ST010 5CU025 7AC090 A2911 P/FR
RJCC 242330Z 17021KT 9999 FEW010 BKN020 BKN030 08/05 Q0984 RMK 1ST010 5CU020 7CU030 A2908
RJCC 242344Z 17021G33KT 9999 -SHRA FEW010 BKN020 BKN030 08/05 Q0984 RMK 1ST010 5CU020 7CU030 A2907
2017年12月25日00-24UTC 新千歳空港METAR -1

RJCC 250000Z 19026G36KT 9999 -SHRA FEW010 FEW020CB SCT025 BKN120 08/05 Q0984 RMK 1ST010 1CB020 3CU025 7AC120 A2906 CB 10KM E MOV NE
RJCC 250014Z 18036KT 9999 -SHRA FEW010 FEW020CB BKN025 BKN120 07/04 Q0984 RMK 1ST010 1CB020 6CU025 7AC120 A2906 CB NE
RJCC 250021Z 17025G35KT 9999 -SHRA FEW010 FEW020CB BKN025 BKN120 07/03 Q0983 RMK 1ST010 1CB020 6CU025 7AC120 A2905 CB NE
RJCC 250030Z 18025G35KT 9999 FEW010 BKN025 BKN040 07/03 Q0983 RMK 1ST010 5CU025 7CU040 A2904
RJCC 250100Z 20025G39KT 9999 FEW015 BKN030 07/01 Q0982 RMK 1ST015 6CU030 A2902 WS 15KT MS AND PS OBS AT 0050Z ON FNA RWY 19L BLW 2000FT IN DES B738
RJCC 250130Z 20025KT 9999 -SHRA FEW015 BKN030 06/01 Q0983 RMK 1ST015 7CU030 A2903
RJCC 250131Z 20025G35KT 9999 -SHRA FEW015 BKN030 06/01 Q0983 RMK 1ST015 7CU030 A2903
RJCC 250200Z 21021G35KT 9999 FEW010 BKN035 06/M00 Q0981 RMK 1ST010 6CU035 A2899 P/FR
RJCC 250230Z 24020G33KT 210V280 9999 FEW012 SCT035 06/M01 Q0982 RMK 1ST012 4CU035 A2901
RJCC 250300Z 26024G34KT 9999 FEW012 SCT040 05/M03 Q0983 RMK 1ST012 4CU040 A2905 P/RR
RJCC 250330Z 26022G35KT 9999 -SHSNRA FEW012 BKN040 03/M04 Q0983 RMK 1ST012 5CU040 A2904
RJCC 250400Z 26018KT 9999 -SHSN FEW010 SCT035 BKN050 03/M02 Q0984 RMK 1ST010 4CU035 5CU050 A2907
RJCC 250430Z 27018KT 9999 -SHSN FEW010 SCT030 BKN050 03/M04 Q0985 RMK 1ST010 3CU030 6CU050 A2909
RJCC 250500Z 34016KT 9999 -SHSN FEW010 BKN050 04/M06 Q0986 RMK 1ST010 6CU050 A2912 P/RR
RJCC 250508Z 33016G26KT 300V360 9999 -SHSN FEW010 BKN050 04/M06 Q0986 RMK 1ST010 7CU050 A2914 P/RR
RJCC 250530Z 33010KT 300V010 9999 -SHSN FEW010 BKN050 03/M07 Q0988 RMK 1ST010 7CU050 A2918 P/RR
RJCC 250540Z 33015G25KT 9999 -SHSN FEW010 BKN050 02/M06 Q0988 RMK 1ST010 7CU050 A2919 P/RR
RJCC 250600Z 30023KT 9999 -SHSN FEW010 BKN050 02/M06 Q0989 RMK 1ST010 7CU050 A2921
RJCC 250607Z 30019G29KT 9999 -SHSN FEW010 BKN050 01/M06 Q0989 RMK 1ST010 7CU050 A2921 MOD TURB OBS AT 0554Z 2NM E CHE BTN 4500FT AND 5500FT IN CMB B737
-2
RJCC 250630Z 30012KT 270V340 9999 -SHSN FEW010 SCT035 BKN050 01/M05 Q0990 RMK 1ST010 3CU035 6CU050 A2924
RJCC 250639Z 36007KT 9999 -SHSN FEW015 SCT035 BKN050 01/M06 Q0990 RMK 1ST015 3CU035 5CU050 A2924 P/RR
RJCC 250700Z 32007KT 290V360 9999 FEW015 SCT035 BKN050 01/M05 Q0990 RMK 1ST015 3CU035 5CU050 A2926
RJCC 250730Z 02008KT 9999 FEW015 BKN050 00/M05 Q0991 RMK 1ST015 6CU050 A2928
RJCC 250800Z 02007KT 350V050 9999 -SHSN FEW015 BKN045 00/M04 Q0992 RMK 1ST015 7CU045 A2930 ICE OBS AT 0732Z OVER CHE BTN 7000FT AND 9000FT IN CMB A330 INTST UNKNOWN
RJCC 250830Z 35009KT 9999 -SHSN FEW015 BKN045 M00/M04 Q0992 RMK 1ST015 7CU045 A2932
RJCC 250900Z 01008KT 9999 -SHSN FEW015 BKN035 BKN045 M00/M04 Q0993 RMK 1ST015 5CU035 7CU045 A2933
RJCC 250930Z 02007KT 9999 -SHSN FEW015 BKN035 BKN045 M01/M05 Q0993 RMK 1ST015 5CU035 7CU045 A2933
RJCC 251000Z 03004KT 9999 -SHSN FEW015 BKN030 BKN045 M01/M04 Q0993 RMK 1ST015 5CU030 7CU045 A2935
RJCC 251030Z VRB01KT 9999 -SHSN FEW015 BKN040 M01/M04 Q0994 RMK 1ST015 7CU040 A2935
RJCC 251047Z 23012KT 9999 -SHSN FEW015 BKN040 M01/M04 Q0994 RMK 1ST015 7CU040 A2936
RJCC 251100Z 24011KT 9999 -SHSN FEW015 BKN040 M01/M03 Q0994 RMK 1ST015 7CU040 A2937
RJCC 251130Z 25009KT 9999 -SHSN FEW015 SCT040 BKN050 M01/M05 Q0994 RMK 1ST015 4CU040 5CU050 A2938
RJCC 251200Z 26007KT 9999 FEW015 BKN050 M01/M07 Q0995 RMK 1ST015 5CU050 A2939
RJCC 251210Z 25022KT 9999 -SHSN FEW015 BKN050 M01/M09 Q0995 RMK 1ST015 5CU050 A2938
RJCC 251218Z 26021G31KT 9999 -SHSN FEW015 SCT050 M02/M09 Q0995 RMK 1ST015 4CU050 A2939
RJCC 251230Z 26017KT 9999 -SHSN FEW015 SCT050 M02/M09 Q0995 RMK 1ST015 3CU050 A2940
RJCC 251300Z 27015KT 9999 -SHSN FEW015 SCT050 M02/M09 Q0995 RMK 1ST015 3CU050 A2940
RJCC 251330Z 25017KT 4900 -SHSN FEW015 BKN025 M03/M07 Q0996 RMK 1ST015 7CU025 A2942
RJCC 251335Z 24017KT 3100 -SHSN FEW015 BKN025 M03/M07 Q0996 RMK 1ST015 7CU025 A2941
RJCC 251349Z 25018KT 5000 -SHSN FEW015 BKN030 M03/M07 Q0996 RMK 1ST015 5CU030 A2942
-3
RJCC 251400Z 25017KT 5000 -SHSN FEW015 BKN030 M03/M09 Q0996 RMK 1ST015 6CU030 A2943
RJCC 251430Z 24019KT 8000 -SHSN FEW015 SCT030 BKN050 M04/M09 Q0997 RMK 1ST015 4CU030 6CU050 A2944
RJCC 251500Z 24016KT 9999 -SHSN FEW015 BKN050 M03/M10 Q0996 RMK 1ST015 7CU050 A2943
RJCC 251530Z 26011KT 180V310 9999 -SHSN FEW020 BKN050 M03/M11 Q0997 RMK 1CU020 7CU050 A2945
RJCC 251600Z 25013KT 9999 -SHSN FEW020 SCT030 BKN050 M04/M09 Q0997 RMK 1CU020 4CU030 7CU050 A2945
RJCC 251630Z 25013KT 5000 -SHSN FEW010 SCT025 BKN035 M04/M08 Q0997 RMK 1ST010 4CU025 6CU035 A2946
RJCC 251700Z 25012KT 5000 -SHSN FEW010 SCT025 BKN035 M04/M08 Q0997 RMK 1ST010 4CU025 6CU035 A2947
RJCC 251730Z 25019KT 2500 -SHSN FEW010 SCT025 BKN035 M05/M09 Q0997 RMK 1ST010 4CU025 6CU035 A2946
RJCC 251800Z 26016KT 3200 -SHSN FEW010 SCT035 BKN045 M05/M10 Q0998 RMK 1ST010 3CU035 6CU045 A2947
RJCC 251830Z 25014KT 5000 -SHSN FEW010 SCT035 BKN045 M05/M11 Q0998 RMK 1ST010 3CU035 5CU045 A2947
RJCC 251900Z 25011KT 3200 -SHSN FEW010 SCT030 BKN035 M05/M10 Q0998 RMK 1ST010 4CU030 6CU035 A2948
RJCC 251930Z 25016KT 1600 -SHSN FEW010 SCT020 BKN030 M05/M10 Q0998 RMK 1ST010 4CU020 6CU030 A2948
RJCC 252000Z 26012KT 5000 -SHSN FEW010 SCT035 BKN050 M05/M11 Q0998 RMK 1ST010 4CU035 6CU050 A2949
RJCC 252030Z 25014KT 9999 -SHSN FEW010 SCT030 BKN040 M05/M12 Q0998 RMK 1ST010 4CU030 6CU040 A2950
RJCC 252100Z 25012KT 4500 -SHSN FEW010 BKN030 M06/M10 Q0998 RMK 1ST010 7CU030 A2950 9999S
RJCC 252105Z 26011KT 6000 -SHSN FEW010 SCT030 BKN040 M06/M10 Q0999 RMK 1ST010 4CU030 6CU040 A2950
RJCC 252130Z 24015KT 8000 -SHSN FEW015 SCT030 BKN040 M06/M11 Q0998 RMK 1ST015 3CU030 6CU040 A2949
RJCC 252134Z 24017G29KT 3000 -SHSN FEW010 SCT015 BKN025 M06/M10 Q0998 RMK 1ST010 3ST015 6CU025 A2949
RJCC 252137Z 24018G29KT 1300 R19R/P2000N R19L/P2000N -SHSN FEW010 SCT015 BKN025 M06/M09 Q0998 RMK 1ST010 3ST015 6CU025 A2949
RJCC 252145Z 25018KT 3500 R19R/2000N R19L/P2000N -SHSN FEW010 SCT015 BKN025 M06/M10 Q0998 RMK 1ST010 3ST015 6CU025 A2949
-4
RJCC 252200Z 25016KT 4500 -SHSN FEW010 SCT025 BKN040 M06/M09 Q0998 RMK 1ST010 3CU025 5CU040 A2948
RJCC 252214Z 24016KT 5000 -SHSN FEW010 SCT025 BKN040 M06/M09 Q0998 RMK 1ST010 3CU025 5CU040 A2949
RJCC 252230Z 23010KT 5000 -SHSN FEW010 SCT030 BKN040 M06/M09 Q0998 RMK 1ST010 3CU030 5CU040 A2949
RJCC 252242Z 22010KT 2500 R19R/P2000N R19L/P2000N -SHSN FEW010 SCT015 BKN030 M06/M09 Q0998 RMK 1ST010 3ST015 6CU030 A2949
RJCC 252248Z 23011KT 1400 R19R/P2000N R19L/P2000N -SHSN FEW008 BKN015 M06/M09 Q0998 RMK 1ST008 7ST015 A2949
RJCC 252300Z 23013KT 0500 R19R/1200VP2000N R19L/P2000N SHSN VV005 M07/M08 Q0998 RMK A2950
RJCC 252303Z 23013KT 1200 R19R/1200VP2000N R19L/2000N -SHSN FEW005 BKN008 BKN020 M07/M08 Q0998 RMK 1ST005 5ST008 7CU020 A2949
RJCC 252307Z 24012KT 1200 R19R/1200VP2000D R19L/2000N -SHSN FEW005 BKN008 BKN020 M07/M08 Q0998 RMK 1ST005 5ST008 7CU020 A2949
RJCC 252330Z 24011KT 0800 R19R/1200VP2000D R19L/P2000N SHSN FEW005 BKN008 M06/M08 Q0998
RJCC 252341Z 25009KT 1400 R19R/1300VP2000U R19L/P2000N -SHSN FEW005 BKN008 BKN025 M06/M08 Q0998 RMK 2ST005 5ST008 7CU025 A2949
2017年12月26日00-24UTC 新千歳空港METAR -1

RJCC 260000Z 24005KT 210V280 2000 R19R/1800U R19L/P2000N -SHSN FEW008 SCT015 BKN025 M06/M09 Q0998 RMK 1ST008 3ST015 6CU025 A2948
RJCC 260006Z 24005KT 210V290 2400 R19R/P2000N R19L/P2000N -SHSN FEW015 BKN025 BKN040 M05/M09 Q0998 RMK 1ST015 5CU025 6CU040 A2947
RJCC 260016Z 25006KT 200V290 3200 R19R/P2000N R19L/1100VP2000D -SHSN FEW015 SCT025 BKN040 M05/M09 Q0998 RMK 1ST015 4CU025 6CU040 A2947
RJCC 260030Z 24009KT 210V290 5000 R19R/P2000N R19L/1200VP2000N -SHSN FEW015 SCT030 BKN045 M05/M10 Q0997 RMK 1ST015 4CU030 6CU045 A2946
RJCC 260100Z 25015KT 210V280 8000 -SHSN FEW015 SCT030 BKN045 M05/M11 Q0997 RMK 1ST015 3CU030 6CU045 A2944
RJCC 260127Z 24017G27KT 9999 -SHSN FEW015 SCT030 BKN050 M04/M13 Q0996 RMK 1ST015 3CU030 6CU050 A2942
RJCC 260130Z 25019KT 9999 -SHSN FEW015 SCT030 BKN050 M04/M14 Q0996 RMK 1ST015 3CU030 6CU050 A2942
RJCC 260144Z 24024G35KT 9999 R19R/1400VP2000D R19L/P2000N -SHSN FEW015 SCT030 BKN050 M04/M13 Q0996 RMK 1ST015 3CU030 6CU050 A2942
RJCC 260200Z 24023G33KT 9999 R19R/1400VP2000D R19L/P2000N -SHSN FEW015 SCT030 BKN050 M04/M13 Q0996 RMK 1ST015 3CU030 6CU050 A2941
RJCC 260230Z 24020G31KT 210V270 9999 -SHSN FEW015 SCT030 BKN050 M05/M12 Q0996 RMK 1ST015 3CU030 6CU050 A2941
RJCC 260300Z 26021KT 9999 -SHSN FEW015 SCT035 BKN050 M04/M15 Q0995 RMK 1ST015 3CU035 6CU050 A2940
RJCC 260303Z 26021G31KT 9999 -SHSN FEW015 SCT035 BKN050 M04/M14 Q0995 RMK 1ST015 3CU035 6CU050 A2940
RJCC 260330Z 25020G30KT 9999 FEW015 SCT035 BKN050 M05/M14 Q0995 RMK 1ST015 3CU035 6CU050 A2938
RJCC 260400Z 25019KT 9999 -SHSN FEW015 SCT035 BKN050 M05/M15 Q0994 RMK 1ST015 3CU035 6CU050 A2938
RJCC 260420Z 25020G33KT 220V280 9999 -SHSN FEW015 SCT035 BKN050 M05/M14 Q0994 RMK 1ST015 3CU035 6CU050 A2937
RJCC 260430Z 25024KT 7000 -SHSN FEW015 SCT035 BKN050 M06/M14 Q0994 RMK 1ST015 4CU035 6CU050 A2937
RJCC 260433Z 26023G33KT 7000 -SHSN FEW015 SCT035 BKN050 M06/M14 Q0994 RMK 1ST015 4CU035 6CU050 A2938
-2
RJCC 260500Z 25016KT 8000 -SHSN FEW010 SCT025 BKN040 M06/M12 Q0994 WS R01R RMK 1ST010 3CU025 6CU040 A2937
RJCC 260521Z 26015G28KT 9999 -SHSN FEW010 SCT025 BKN045 M05/M14 Q0994 RMK 1ST010 3CU025 6CU045 A2937
RJCC 260530Z 27020KT 9999 -SHSN FEW015 SCT030 BKN045 M05/M15 Q0994 RMK 1ST015 3CU030 6CU045 A2938
RJCC 260531Z 27019G29KT 9999 -SHSN FEW015 SCT030 BKN045 M06/M15 Q0994 RMK 1ST015 3CU030 6CU045 A2937
RJCC 260600Z 26015KT 6000 -SHSN FEW015 SCT030 BKN045 M06/M13 Q0994 RMK 1ST015 4CU030 6CU045 A2938
RJCC 260617Z 25016KT 4900 -SHSN FEW015 BKN025 BKN040 M07/M12 Q0994 RMK 1ST015 5CU025 7CU040 A2937
RJCC 260630Z 25016KT 4500 -SHSN FEW015 BKN025 BKN040 M07/M12 Q0994 RMK 1ST015 5CU025 7CU040 A2937
RJCC 260635Z 25016KT 2300 -SHSN FEW015 BKN020 BKN040 M07/M12 Q0994 RMK 1ST015 5CU020 7CU040 A2937
RJCC 260700Z 26016KT 2400 -SHSN FEW015 BKN020 BKN040 M07/M11 Q0994 RMK 1ST015 5CU020 7CU040 A2936
RJCC 260730Z 26013KT 5000 -SHSN FEW015 SCT020 BKN045 M07/M14 Q0994 RMK 1ST015 3CU020 7CU045 A2937
RJCC 260800Z 26015KT 9999 -SHSN FEW015 SCT050 M07/M15 Q0994 RMK 1ST015 4CU050 A2936
RJCC 260817Z 26017G28KT 9999 -SHSN FEW015 BKN050 M07/M15 Q0994 RMK 1ST015 5CU050 A2935
RJCC 260830Z 25018KT 9999 -SHSN FEW010 BKN045 M07/M15 Q0993 RMK 1ST010 6CU045 A2935
RJCC 260845Z 25016G26KT 9999 -SHSN FEW010 BKN040 M07/M15 Q0993 RMK 1ST010 6CU040 A2935
RJCC 260900Z 25012KT 9999 -SHSN FEW010 BKN040 M07/M14 Q0994 RMK 1ST010 7CU040 A2936
RJCC 260930Z 23004KT 090V270 9999 -SHSN FEW010 SCT025 BKN040 M07/M13 Q0994 RMK 1ST010 3CU025 7CU040 A2938
RJCC 261000Z 24009KT 9999 -SHSN FEW010 SCT025 BKN040 M07/M13 Q0994 RMK 1ST010 3CU025 7CU040 A2937
RJCC 261030Z 24014KT 9999 -SHSN FEW010 SCT025 BKN040 M07/M14 Q0994 RMK 1ST010 3CU025 7CU040 A2936
RJCC 261100Z 23012KT 9999 -SHSN FEW015 SCT025 BKN040 M07/M14 Q0994 RMK 1ST015 3CU025 7CU040 A2935
RJCC 261130Z VRB09KT 9999 -SHSN FEW015 SCT030 BKN045 M07/M14 Q0993 RMK 1ST015 3CU030 7CU045 A2935
-3
RJCC 261200Z 23012KT 9999 -SHSN FEW015 SCT030 BKN050 M07/M14 Q0993 RMK 1ST015 4CU030 7CU050 A2934
RJCC 261230Z 24010KT 9999 -SHSN FEW015 SCT030 BKN050 M07/M13 Q0993 RMK 1ST015 3CU030 7CU050 A2934
RJCC 261300Z 23012KT 9999 -SHSN FEW015 SCT035 BKN050 M07/M13 Q0993 RMK 1ST015 4CU035 7CU050 A2934
RJCC 261330Z 24010KT 9999 -SHSN FEW015 BKN030 BKN040 M07/M12 Q0993 RMK 1ST015 5CU030 7CU040 A2934
RJCC 261400Z 23011KT 6000 -SHSN FEW010 SCT025 BKN040 M07/M10 Q0993 RMK 1ST010 4CU025 7CU040 A2934
RJCC 261430Z 23008KT 9000 -SHSN FEW010 BKN040 M07/M10 Q0993 RMK 1ST010 7CU040 A2934
RJCC 261500Z 23007KT 9999 -SHSN FEW010 BKN040 M07/M10 Q0993 RMK 1ST010 7CU040 A2933
RJCC 261530Z 22007KT 190V260 9999 -SHSN FEW010 BKN040 M07/M10 Q0993 RMK 1ST010 7CU040 A2934
RJCC 261600Z 23006KT 9999 -SHSN FEW010 BKN035 M07/M09 Q0993 RMK 1ST010 7CU035 A2934
RJCC 261630Z 21004KT 8000 -SHSN FEW010 SCT025 BKN040 M07/M09 Q0993 RMK 1ST010 3CU025 7CU040 A2934
RJCC 261700Z 17003KT 5000 R19R/P2000N R19L/P2000N -SHSN FEW008 BKN020 BKN035 M07/M08 Q0993 RMK 1ST008 5CU020 7CU035 A2935
RJCC 261730Z 15002KT 2500 R19R/P2000N R19L/P2000N -SHSN FEW005 SCT008 BKN020 M07/M08 Q0993 RMK 1ST005 4ST008 7CU020 A2935
RJCC 261800Z 08003KT 1600 -SHSN FEW005 BKN012 BKN020 M07/M08 Q0993 RMK 1ST005 5ST012 7CU020 A2935
RJCC 261830Z 09003KT 2500 -SHSN FEW005 SCT015 BKN025 M07/M08 Q0994 RMK 1ST005 4ST015 7CU025 A2935
RJCC 261900Z 10004KT 3000 -SHSN FEW005 SCT020 BKN030 M08/M08 Q0994 RMK 1ST005 4CU020 7CU030 A2935
RJCC 261930Z 11004KT 9999 -SHSN FEW005 SCT030 BKN040 M08/M08 Q0994 RMK 1ST005 3CU030 7CU040 A2936
RJCC 262000Z 14003KT 9999 -SHSN FEW005 SCT040 BKN050 M08/M09 Q0994 RMK 1ST005 3CU040 7CU050 A2936
RJCC 262030Z 13002KT 9999 -SHSN FEW005 SCT040 BKN050 M08/M09 Q0994 RMK 1ST005 4CU040 7CU050 A2937
-4
RJCC 262100Z 16004KT 9999 -SHSN FEW008 SCT035 BKN050 M07/M09 Q0994 RMK 1ST008 3CU035 7CU050 A2938
RJCC 262130Z 17003KT 9999 -SHSN FEW010 BKN040 M08/M09 Q0995 RMK 1ST010 7CU040 A2938
RJCC 262200Z 13003KT 8000 -SHSN FEW010 BKN030 M08/M09 Q0995 RMK 1ST010 7CU030 A2939
RJCC 262230Z 16004KT 8000 -SHSN FEW012 BKN030 BKN080 M07/M09 Q0995 RMK 1ST012 5CU030 6AC080 A2940
RJCC 262300Z 20005KT 170V240 9999 -SHSN FEW012 BKN040 BKN080 M08/M09 Q0995 RMK 1ST012 5CU040 6AC080 A2941
RJCC 262330Z 19006KT 9999 -SHSN FEW015 BKN050 BKN080 M07/M09 Q0996 RMK 1ST015 5CU050 6AC080 A2941
2017年12月27日00-24UTC 新千歳空港METAR -1

RJCC 270000Z 21005KT 9999 -SHSN FEW015 SCT035 BKN060 M07/M09 Q0996 RMK 1ST015 3CU035 6CU060 A2942
RJCC 270030Z 20006KT 9999 -SHSN FEW015 SCT035 BKN060 M07/M10 Q0996 RMK 1ST015 3CU035 5CU060 A2943
RJCC 270100Z 19007KT 9999 FEW015 SCT045 BKN060 M07/M10 Q0996 RMK 1ST015 3CU045 5CU060 A2943
RJCC 270130Z 20005KT 9999 VCSH FEW015 BKN050 BKN110 M06/M11 Q0996 RMK 1ST015 5CU050 7AC110 A2943 SH W
RJCC 270200Z 22004KT 170V250 9999 -SHSN FEW015 BKN040 M06/M11 Q0996 RMK 1ST015 7CU040 A2942
RJCC 270230Z 20004KT 9999 -SHSN FEW015 BKN040 M06/M11 Q0996 RMK 1ST015 7CU040 A2942
RJCC 270300Z VRB02KT 9999 -SHSN FEW015 BKN040 M06/M10 Q0996 RMK 1ST015 7CU040 A2942
RJCC 270330Z VRB03KT 9999 -SHSN FEW015 BKN040 M06/M11 Q0996 RMK 1ST015 7CU040 A2943
RJCC 270400Z VRB02KT 9999 -SHSN FEW015 BKN040 M06/M10 Q0996 RMK 1ST015 7CU040 A2943
RJCC 270430Z 25004KT 200V310 9999 -SHSN FEW015 BKN035 BKN080 M06/M09 Q0996 RMK 1ST015 5CU035 7AC080 A2943
RJCC 270500Z 28005KT 200V010 9999 VCSH FEW015 SCT030 BKN080 M05/M09 Q0997 RMK 1ST015 3CU030 7AC080 A2945 SH SW-W
RJCC 270530Z 31006KT 280V040 9999 VCSH FEW015 SCT030 BKN070 M05/M11 Q0997 RMK 1ST015 3CU030 7AC070 A2946 SH S-SW
RJCC 270600Z 32008KT 9999 FEW015 SCT030 BKN070 M05/M12 Q0997 RMK 1ST015 3CU030 6AC070 A2947
RJCC 270630Z 30007KT 9999 FEW015 SCT040 BKN070 M05/M10 Q0998 RMK 1ST015 3CU040 5AC070 A2948
RJCC 270700Z 26005KT 220V300 9999 FEW015 SCT040 BKN070 M06/M10 Q0998 RMK 1ST015 3CU040 5AC070 A2949
RJCC 270730Z 25003KT 220V280 9999 FEW020 BKN070 M06/M11 Q0999 RMK 1CU020 5AC070 A2951
RJCC 270800Z 24005KT 220V020 9999 FEW020 BKN060 M06/M12 Q0999 RMK 1CU020 5CU060 A2952
RJCC 270830Z 27005KT 9999 FEW020 BKN060 M07/M12 Q1000 RMK 1CU020 6CU060 A2953
RJCC 270900Z 29005KT 230V330 9999 FEW020 SCT060 M06/M12 Q1000 RMK 1CU020 3CU060 A2954
RJCC 270930Z VRB05KT 9999 FEW020 M09/M12 Q1000 RMK 1CU020 A2955
RJCC 271000Z 29007KT 9999 FEW020 M09/M12 Q1001 RMK 1CU020 A2956
RJCC 271030Z 31010KT 9999 FEW020 M09/M13 Q1001 RMK 1CU020 A2957
-2
RJCC 271046Z 25007KT 200V300 9999 FEW020 M09/M13 Q1001 RMK 1CU020 A2957
RJCC 271100Z 21005KT 9999 FEW020 M09/M12 Q1001 RMK 1CU020 A2957
RJCC 271130Z 25003KT 210V290 9999 FEW020 SCT050 M10/M13 Q1002 RMK 1CU020 3CU050 A2959
RJCC 271200Z 25006KT 220V280 9999 FEW020 SCT050 M06/M12 Q1002 RMK 1CU020 3CU050 A2959
RJCC 271230Z 27008KT 9999 FEW020 M07/M13 Q1002 RMK 1CU020 A2959
RJCC 271300Z VRB02KT 9999 FEW020 M12/M16 Q1002 RMK 1CU020 A2960
RJCC 271330Z VRB02KT 9999 FEW020 M10/M12 Q1002 RMK 1CU020 A2961
RJCC 271400Z 13003KT 9999 FEW020 M11/M13 Q1003 RMK 1CU020 A2962
RJCC 271430Z 23004KT 190V270 9999 FEW020 M12/M14 Q1003 RMK 1CU020 A2962
RJCC 271500Z 11005KT 9999 FEW020 M11/M12 Q1003 RMK 1CU020 A2962
RJCC 271530Z VRB01KT 9999 FEW020 M12/M14 Q1003 RMK 1CU020 A2962
RJCC 271600Z 17003KT 9999 FEW020 M13/M14 Q1003 RMK 1CU020 A2964
RJCC 271630Z VRB01KT 9999 FEW020 M12/M14 Q1003 RMK 1CU020 A2964
RJCC 271700Z 35004KT 9999 FEW020 M13/M15 Q1004 RMK 1CU020 A2965
RJCC 271730Z VRB02KT 9999 FEW020 M14/M15 Q1004 RMK 1CU020 A2966
RJCC 271800Z VRB02KT 9999 FEW020 M14/M15 Q1004 RMK 1CU020 A2966
RJCC 271830Z VRB01KT 9999 FEW020 M14/M16 Q1004 RMK 1CU020 A2965
RJCC 271900Z 06002KT 9999 FEW020 M13/M15 Q1004 RMK 1CU020 A2966
RJCC 271930Z 32003KT 260V360 9999 FEW020 M14/M16 Q1004 RMK 1CU020 A2967
RJCC 272000Z VRB02KT 9999 FEW020 SCT050 M14/M15 Q1005 RMK 1CU020 4CU050 A2969
RJCC 272030Z 21003KT 9999 FEW020 BKN050 M12/M14 Q1005 RMK 1CU020 5CU050 A2970
RJCC 272100Z VRB01KT 9999 FEW020 SCT040 M13/M14 Q1005 RMK 1CU020 4CU040 A2970
RJCC 272130Z VRB02KT 9999 FEW020 BKN040 M12/M14 Q1006 RMK 1CU020 6CU040 A2972
RJCC 272200Z 19003KT 150V230 9999 -SHSN FEW015 BKN040 M10/M11 Q1006 RMK 1ST015 7CU040 A2973
RJCC 272230Z 28005KT 240V320 9999 -SHSN FEW015 BKN040 M07/M10 Q1006 RMK 1ST015 6CU040 A2973
RJCC 272300Z 32009KT 9999 -SHSN FEW015 BKN040 M07/M10 Q1007 RMK 1ST015 6CU040 A2974
RJCC 272330Z 32003KT 9999 FEW015 SCT040 M06/M10 Q1007 RMK 1ST015 3CU040 A2975
2017年12月28日00-24UTC 新千歳空港METAR -1

RJCC 280000Z 18003KT 140V230 9999 FEW015 BKN050 M05/M09 Q1007 RMK 1ST015 6CU050 A2976
RJCC 280030Z VRB01KT 9999 FEW015 BKN050 M04/M10 Q1008 RMK 1ST015 5CU050 A2977
RJCC 280100Z 30006KT 250V330 9999 FEW020 SCT045 BKN/// M02/M10 Q1007 RMK 1CU020 3CU045 A2976
RJCC 280130Z 32013KT 9999 -SHSN FEW020 BKN040 M01/M10 Q1007 RMK 1CU020 6CU040 A2976
RJCC 280200Z 34008KT 320V020 9999 -SHSN FEW025 BKN045 M02/M10 Q1007 RMK 1CU025 6CU045 A2975
RJCC 280230Z 02006KT 9999 FEW025 BKN045 M02/M08 Q1006 RMK 1CU025 6CU045 A2973
RJCC 280300Z 34005KT 9999 FEW025 SCT045 M01/M09 Q1006 RMK 1CU025 3CU045 A2973
RJCC 280326Z 32016KT 280V340 9999 FEW025 M01/M11 Q1006 RMK 1CU025 A2971
RJCC 280330Z 31017KT 9999 FEW025 M01/M11 Q1006 RMK 1CU025 A2972
RJCC 280400Z 01011KT 9999 FEW030 M01/M11 Q1006 RMK 1CU030 A2973
RJCC 280420Z 31010KT 9999 FEW030 SCT050 M01/M09 Q1006 RMK 1CU030 3CU050 A2972
RJCC 280430Z 34012KT 9999 FEW030 SCT050 M01/M10 Q1006 RMK 1CU030 3CU050 A2972
RJCC 280500Z 32016KT 9999 -SHSN FEW030 SCT050 M01/M10 Q1006 RMK 2CU030 3CU050 A2973
RJCC 280530Z 35012KT 9999 -SHSN FEW025 SCT050 M02/M09 Q1007 RMK 1CU025 3CU050 A2974
RJCC 280600Z 35011KT 9999 FEW025 SCT050 M02/M09 Q1007 RMK 1CU025 3CU050 A2975
RJCC 280630Z 34009KT 300V360 9999 FEW025 BKN050 M02/M10 Q1007 RMK 1CU025 5CU050 A2976
RJCC 280700Z 35009KT 9999 FEW025 M03/M10 Q1008 RMK 1CU025 A2977
RJCC 280730Z 34005KT 9999 FEW025 M03/M10 Q1008 RMK 1CU025 A2977
RJCC 280800Z 31007KT 9999 FEW025 M05/M10 Q1008 RMK 1CU025 A2978
RJCC 280830Z 28006KT 240V330 9999 FEW025 BKN040 M04/M10 Q1008 RMK 1CU025 6CU040 A2978
RJCC 280900Z 26005KT 9999 FEW025 BKN040 M04/M10 Q1008 RMK 1CU025 7CU040 A2979
RJCC 280930Z 25004KT 210V330 9999 FEW025 BKN050 M03/M10 Q1008 RMK 1CU025 6CU050 A2979
RJCC 281000Z 25005KT 9999 -SHSN FEW025 BKN050 M04/M09 Q1009 RMK 1CU025 7CU050 A2979
RJCC 281030Z VRB02KT 9999 FEW025 BKN050 M03/M09 Q1008 RMK 1CU025 6CU050 A2979
RJCC 281100Z 22004KT 9999 FEW025 BKN050 M03/M09 Q1009 RMK 1CU025 7CU050 A2979
-2
RJCC 281130Z 21005KT 9999 -SHSN FEW025 BKN040 M03/M09 Q1009 RMK 1CU025 7CU040 A2980
RJCC 281200Z 28003KT 220V030 7000 -SHSN FEW020 BKN030 M03/M08 Q1009 RMK 1CU020 7CU030 A2981
RJCC 281208Z 30003KT 240V030 4900 -SHSN FEW020 BKN030 M04/M07 Q1009 RMK 1CU020 7CU030 A2981
RJCC 281230Z VRB02KT 5000 -SHSN FEW015 BKN025 M04/M06 Q1009 RMK 1ST015 7CU025 A2980
RJCC 281300Z VRB01KT 8000 -SHSN FEW015 BKN030 M04/M06 Q1009 RMK 1ST015 7CU030 A2982
RJCC 281322Z VRB01KT 4900 -SHSN FEW015 BKN030 M04/M05 Q1009 RMK 1ST015 7CU030 A2981
RJCC 281330Z 17002KT 3000 -SHSN FEW015 BKN030 M05/M05 Q1009 RMK 1ST015 7CU030 A2981
RJCC 281400Z 19004KT 3200 -SHSN FEW015 BKN035 M05/M05 Q1009 RMK 1ST015 7CU035 A2980
RJCC 281430Z 17006KT 8000 -SHSN FEW015 BKN050 M05/M05 Q1009 RMK 1ST015 7CU050 A2980
RJCC 281500Z 20004KT 8000 -SHSN FEW015 BKN040 M04/M05 Q1009 RMK 1ST015 7CU040 A2981
RJCC 281530Z 21004KT 7000 -SHSN FEW015 BKN030 M04/M05 Q1009 RMK 1ST015 7CU030 A2981
RJCC 281600Z 23004KT 9999 -SHSN FEW015 BKN050 M05/M05 Q1009 RMK 1ST015 7CU050 A2981
RJCC 281630Z 22003KT 9999 -SHSN FEW015 BKN050 M04/M06 Q1009 RMK 1ST015 7CU050 A2982
RJCC 281700Z 19005KT 9999 -SHSN FEW015 BKN050 M05/M06 Q1010 RMK 1ST015 7CU050 A2982
RJCC 281730Z 23006KT 9999 -SHSN FEW015 BKN050 M04/M06 Q1009 RMK 1ST015 7CU050 A2982
RJCC 281800Z 25005KT 9999 FEW015 BKN050 M04/M08 Q1009 RMK 1ST015 7CU050 A2982
RJCC 281830Z VRB02KT 9999 FEW015 BKN050 M04/M08 Q1009 RMK 1ST015 7CU050 A2982
RJCC 281900Z VRB02KT 9999 FEW020 BKN050 M04/M09 Q1010 RMK 1CU020 7CU050 A2983
RJCC 281930Z VRB02KT 9999 FEW020 BKN050 M04/M08 Q1010 RMK 1CU020 7CU050 A2983
RJCC 282000Z 22001KT 9999 FEW020 BKN050 M05/M08 Q1010 RMK 1CU020 6CU050 A2984
RJCC 282030Z VRB02KT 9999 FEW020 BKN050 M05/M08 Q1010 RMK 1CU020 7CU050 A2984
-3
RJCC 282100Z 06003KT 9999 FEW020 BKN060 M06/M07 Q1010 RMK 1CU020 7CU060 A2985
RJCC 282130Z 07003KT 9999 PRFG FEW020 BKN060 M07/M08 Q1010 RMK 1CU020 5CU060 A2985 FG E
RJCC 282200Z 18003KT 130V200 9999 FEW020 SCT060 M08/M09 Q1011 RMK 1CU020 3CU060 A2985
RJCC 282230Z 03004KT 330V050 9999 FEW020 BKN050 M08/M09 Q1011 RMK 1CU020 5CU050 A2986
RJCC 282300Z VRB02KT 9999 FEW020 SCT050 M06/M07 Q1011 RMK 1CU020 3CU050 A2986
RJCC 282330Z VRB02KT 9999 FEW020 SCT040 M05/M07 Q1011 RMK 1CU020 4CU040 A2987
2017年12月29日00-24UTC 新千歳空港METAR -1

RJCC 290000Z 06003KT 9999 FEW020 BKN040 M04/M07 Q1011 RMK 1CU020 7CU040 A2986
RJCC 290030Z 14003KT 100V190 9999 FEW020 BKN050 M03/M07 Q1011 RMK 1CU020 7CU050 A2986
RJCC 290100Z 17003KT 130V210 9999 FEW020 BKN050 M03/M07 Q1010 RMK 1CU020 7CU050 A2985
RJCC 290130Z 16004KT 120V200 9999 FEW020 BKN050 M03/M07 Q1010 RMK 1CU020 7CU050 A2984
RJCC 290200Z VRB01KT 9999 FEW020 BKN050 M03/M08 Q1010 RMK 1CU020 7CU050 A2983
RJCC 290230Z VRB01KT 9999 FEW020 BKN060 M02/M08 Q1009 RMK 1CU020 6CU060 A2982
RJCC 290300Z 26004KT 230V310 9999 FEW020 BKN060 M02/M10 Q1009 RMK 1CU020 6CU060 A2980
RJCC 290330Z VRB01KT 9999 FEW020 BKN060 M02/M09 Q1009 RMK 1CU020 5CU060 A2979
RJCC 290400Z 34004KT 280V010 9999 FEW020 BKN060 M02/M09 Q1008 RMK 1CU020 6CU060 A2979
RJCC 290430Z 00000KT 9999 FEW020 BKN060 M02/M09 Q1008 RMK 1CU020 6CU060 A2979
RJCC 290500Z 36003KT 330V030 9999 FEW020 BKN050 M02/M08 Q1008 RMK 1CU020 6CU050 A2979
RJCC 290530Z VRB01KT 9999 FEW020 SCT050 M02/M08 Q1008 RMK 1CU020 4CU050 A2979
RJCC 290600Z 24004KT 210V270 9999 FEW020 SCT050 M02/M08 Q1008 RMK 1CU020 4CU050 A2979
RJCC 290630Z VRB01KT 9999 FEW020 SCT050 M02/M08 Q1008 RMK 1CU020 3CU050 A2979
RJCC 290700Z 00000KT 9999 FEW020 BKN060 M03/M08 Q1009 RMK 1CU020 5CU060 A2980
RJCC 290730Z 07001KT 9999 FEW020 BKN060 M03/M08 Q1009 RMK 1CU020 6CU060 A2980
RJCC 290800Z VRB01KT 9999 -SHSN FEW015 SCT050 M03/M07 Q1009 RMK 1ST015 3CU050 A2981
RJCC 290830Z VRB01KT 9999 FEW015 SCT050 M04/M07 Q1009 RMK 1ST015 4CU050 A2981
RJCC 290900Z VRB02KT 9999 FEW015 M06/M08 Q1009 RMK 1ST015 A2981
RJCC 290930Z 09001KT 9999 FEW015 M06/M08 Q1009 RMK 1ST015 A2982
RJCC 291000Z VRB02KT 9999 FEW015 M05/M07 Q1010 RMK 1ST015 A2983
RJCC 291030Z VRB01KT 9999 FEW015 M07/M08 Q1010 RMK 1ST015 A2984
RJCC 291100Z VRB02KT 9999 FEW015 M07/M09 Q1010 RMK 1ST015 A2984
RJCC 291130Z 32003KT 9999 FEW015 SCT045 BKN070 M08/M09 Q1011 RMK 1ST015 4CU045 6AC070 A2986
-2
RJCC 291200Z 02003KT 9999 -SHSN FEW015 SCT035 BKN045 M07/M07 Q1011 RMK 1ST015 4CU035 7CU045 A2987
RJCC 291211Z 35003KT 310V020 4900 -SHSN FEW010 SCT030 BKN040 M06/M07 Q1011 RMK 1ST010 4CU030 7CU040 A2987 9999S
RJCC 291214Z 35003KT 1800 -SHSN FEW010 BKN020 BKN030 M06/M07 Q1011 RMK 1ST010 5CU020 7CU030 A2987
RJCC 291219Z 34003KT 1400 R01L/P2000N R01R/P2000N -SHSN FEW010 BKN015 BKN020 M06/M07 Q1011 RMK 1ST010 5ST015 7CU020 A2987
RJCC 291230Z 01004KT 320V040 1600 R01L/P2000N R01R/P2000N -SHSN FEW010 SCT020 BKN045 M06/M07 Q1011 RMK 1ST010 4CU020 7CU045 A2987
RJCC 291239Z 36003KT 3200 -SHSN FEW010 SCT035 BKN045 M06/M06 Q1011 RMK 1ST010 3CU035 6CU045 A2988
RJCC 291300Z 35003KT 4500 -SHSN FEW010 SCT035 BKN045 M06/M06 Q1011 RMK 1ST010 3CU035 7CU045 A2988 9999S
RJCC 291321Z 34004KT 3100 -SHSN FEW010 SCT035 BKN045 M06/M06 Q1011 RMK 1ST010 3CU035 6CU045 A2988
RJCC 291325Z 34004KT 2300 -SHSN FEW010 SCT015 BKN045 M06/M06 Q1012 RMK 1ST010 3ST015 6CU045 A2988
RJCC 291330Z 35003KT 3000 -SHSN FEW010 BKN045 M06/M06 Q1012 RMK 1ST010 6CU045 A2988
RJCC 291339Z 35002KT 3200 -SHSN FEW010 BKN045 BKN050 M06/M06 Q1012 RMK 1ST010 5CU045 6CU050 A2988
RJCC 291343Z 34002KT 5000 -SHSN FEW010 SCT045 BKN050 M06/M06 Q1012 RMK 1ST010 3CU045 6CU050 A2989
RJCC 291400Z 33002KT 9999 FEW010 BKN050 M06/M06 Q1012 RMK 1ST010 6CU050 A2989
RJCC 291430Z VRB01KT 9999 FEW010 SCT050 M07/M07 Q1012 RMK 1ST010 4CU050 A2989
RJCC 291500Z 25002KT 9999 FEW010 M09/M10 Q1012 RMK 1ST010 A2988
RJCC 291530Z 27003KT 240V310 9999 FEW010 BKN060 M10/M10 Q1012 RMK 1ST010 5CU060 A2989
RJCC 291600Z 25001KT 9999 -SHSN FEW010 SCT040 BKN060 M09/M09 Q1012 RMK 1ST010 4CU040 7CU060 A2990
RJCC 291630Z 00000KT 9999 FEW010 BKN060 M08/M09 Q1012 RMK 1ST010 7CU060 A2991
RJCC 291700Z VRB01KT 9999 FEW010 BKN060 M09/M10 Q1013 RMK 1ST010 7CU060 A2992
RJCC 291730Z 00000KT 9999 FEW010 SCT035 BKN060 M09/M10 Q1013 RMK 1ST010 3CU035 7CU060 A2993
-3
RJCC 291800Z 33004KT 8000 -SHSN FEW010 BKN035 BKN060 M08/M09 Q1013 RMK 1ST010 6CU035 7CU060 A2994
RJCC 291830Z VRB02KT 9999 -SHSN FEW010 BKN030 BKN060 M08/M08 Q1014 RMK 1ST010 6CU030 7CU060 A2995 3000NW-NE
RJCC 291900Z 31004KT 3000 -SHSN FEW010 SCT020 BKN030 M07/M08 Q1014 RMK 1ST010 3CU020 7CU030 A2995
RJCC 291930Z 30003KT 3000 -SHSN FEW008 SCT020 BKN030 M07/M08 Q1014 RMK 1ST008 4CU020 7CU030 A2995
RJCC 292000Z 31004KT 9999 -SHSN FEW010 SCT040 BKN050 M07/M07 Q1014 RMK 1ST010 3CU040 6CU050 A2996 5000W-NW
RJCC 292030Z 32004KT 9999 -SHSN FEW010 SCT040 BKN050 M07/M08 Q1015 RMK 1ST010 3CU040 6CU050 A2997
RJCC 292100Z 29003KT 9999 -SHSN FEW010 BKN040 BKN050 M07/M08 Q1015 RMK 1ST010 5CU040 6CU050 A2998
RJCC 292130Z 32004KT 9999 FEW010 SCT045 M07/M07 Q1015 RMK 1ST010 4CU045 A2998
RJCC 292200Z 05003KT 9999 FEW010 BKN050 M08/M09 Q1015 RMK 1ST010 6CU050 A2999
RJCC 292230Z VRB01KT 9999 FEW015 SCT050 M08/M08 Q1015 RMK 1ST015 3CU050 A3000
RJCC 292300Z 35003KT 9999 FEW015 BKN040 M07/M07 Q1016 RMK 1ST015 7CU040 A3000
RJCC 292330Z 34004KT 9999 FEW015 BKN040 M06/M06 Q1016 RMK 1ST015 7CU040 A3002
2017年12月30日00-24UTC 新千歳空港METAR -1

RJCC 300000Z 34006KT 9999 -SHSN FEW015 BKN050 M05/M06 Q1016 RMK 1ST015 6CU050 A3003
RJCC 300030Z 36007KT 9999 -SHSN FEW015 SCT040 M05/M06 Q1017 RMK 1ST015 4CU040 A3004
RJCC 300100Z 33009KT 9999 FEW015 BKN/// M04/M07 Q1017
RJCC 300130Z 33011KT 9999 FEW020 BKN/// M04/M07 Q1017 RMK 2CU020 A3005
RJCC 300200Z 34008KT 9999 FEW020 BKN/// M03/M07 Q1017 RMK 1CU020 A3004
RJCC 300230Z 34013KT 9999 FEW030 BKN/// M04/M08 Q1017 RMK 1CU030 A3004
RJCC 300300Z 34014KT 9999 FEW030 BKN/// M03/M07 Q1017 RMK 1CU030 A3004
RJCC 300330Z 35013KT 9999 FEW030 BKN/// M02/M07 Q1017 RMK 1CU030 A3004
RJCC 300400Z 35012KT 9999 FEW030 SCT/// M03/M07 Q1017 RMK 1CU030 A3004
RJCC 300430Z 35009KT 9999 FEW030 M02/M07 Q1017 RMK 1CU030 A3005
RJCC 300500Z 35013KT 9999 FEW030 M02/M07 Q1017 RMK 1CU030 A3005
RJCC 300530Z 35012KT 9999 FEW030 M02/M07 Q1018 RMK 1CU030 A3006
RJCC 300600Z 35012KT 9999 FEW030 BKN040 M02/M07 Q1018 RMK 1CU030 5CU040 A3008
RJCC 300630Z 35011KT 9999 FEW025 M02/M07 Q1018 RMK 1CU025 A3008
RJCC 300700Z 34011KT 9999 FEW025 M02/M07 Q1019 RMK 1CU025 A3010
RJCC 300730Z 34011KT 9999 FEW020 M02/M06 Q1019 RMK 1CU020 A3012
RJCC 300800Z 35008KT 9999 FEW020 M04/M07 Q1020 RMK 1CU020 A3013
RJCC 300830Z 33007KT 9999 FEW020 SCT030 M03/M07 Q1020 RMK 1CU020 3CU030 A3015
RJCC 300900Z 34008KT 9999 FEW020 M04/M07 Q1021 RMK 1CU020 A3016
RJCC 300930Z 35008KT 9999 FEW020 M05/M08 Q1021 RMK 1CU020 A3017
RJCC 301000Z 35007KT 9999 FEW020 M05/M07 Q1021 RMK 1CU020 A3018
RJCC 301030Z 36008KT 9999 FEW020 M06/M07 Q1021 RMK 1CU020 A3018
RJCC 301100Z 34008KT 9999 FEW020 M06/M08 Q1021 RMK 1CU020 A3017
RJCC 301130Z 33008KT 9999 FEW020 M06/M07 Q1021 RMK 1CU020 A3017
RJCC 301200Z 33009KT 9999 FEW020 M06/M07 Q1021 RMK 1CU020 A3016
RJCC 301230Z 35007KT 9999 FEW030 M07/M08 Q1021 RMK 1CU030 A3016
RJCC 301300Z 35009KT 9999 FEW030 M07/M08 Q1021 RMK 1CU030 A3016
RJCC 301330Z 35009KT 9999 FEW030 M07/M07 Q1021 RMK 1CU030 A3017
-2
RJCC 301400Z 35010KT 9999 FEW030 M06/M07 Q1021 RMK 1CU030 A3016
RJCC 301430Z 34010KT 9999 FEW030 M06/M07 Q1021 RMK 1CU030 A3016
RJCC 301500Z 34008KT 9999 FEW030 M07/M08 Q1021 RMK 1CU030 A3015
RJCC 301530Z 36005KT 9999 FEW030 M08/M08 Q1021 RMK 1CU030 A3016
RJCC 301600Z 34004KT 9999 FEW030 M09/M09 Q1021 RMK 1CU030 A3016
RJCC 301630Z 35004KT 290V010 9999 FEW030 M09/M09 Q1021 RMK 1CU030 A3018
RJCC 301700Z 33005KT 7000 BCFG FEW010 M09/M09 Q1022 RMK 1ST010 A3018
RJCC 301730Z 36006KT 7000 BCFG FEW010 M09/M10 Q1021 RMK 1ST010 A3017
RJCC 301800Z 35005KT 5000 R01L/1800D R01R/P2000N BCFG BR FEW001 M10/M10 Q1021
RJCC 301824Z 34005KT 0900 R01L/2000N R01R/P2000N FZFG BKN001 M10/M10 Q1021 RMK 5ST001 A3016
RJCC 301830Z 35006KT 0900 R01L/1900N R01R/2000N FZFG BKN001 M10/M10 Q1021 RMK 5ST001 A3016
RJCC 301900Z 34005KT 0900 R01L/P2000N R01R/P2000N FZFG BKN001 M09/M10 Q1021 RMK 5ST001 A3016
RJCC 301930Z 33006KT 0400 R01L/P2000N R01R/P2000N FZFG VV001 M09/M09 Q1021 RMK A3017
RJCC 302000Z 33007KT 0900 R01L/P2000N R01R/P2000N FZFG VV001 M09/M09 Q1021 RMK A3017
RJCC 302030Z 33007KT 0800 R01L/2000N R01R/P2000N FZFG BKN001 M10/M10 Q1021 RMK 5ST001 A3017
RJCC 302100Z 33004KT 1200 R01L/P2000N R01R/P2000N BCFG BR SCT001 M10/M10 Q1021
RJCC 302109Z 34005KT 3000 R01L/P2000N R01R/P2000N BCFG BR FEW001 M10/M10 Q1021 RMK 2ST001 A3018 9999W
RJCC 302126Z VRB02KT 8000 R01L/2000D R01R/P2000N BCFG FEW001 M11/M11 Q1021 RMK 2ST001 A3018 3000E
RJCC 302130Z 03002KT 9999 R01L/2000N R01R/P2000N PRFG FEW001 M11/M11 Q1021 RMK 2ST001 A3017 3000E
RJCC 302200Z 03003KT 8000 BCFG FEW001 M11/M11 Q1021 RMK 1ST001 A3017 3000NW
RJCC 302230Z 36004KT 9999 PRFG FEW010 M11/M11 Q1021 RMK 1ST010 A3016 3000N
RJCC 302300Z 31004KT 9999 FEW010 M11/M11 Q1021 RMK 1ST010 A3017
RJCC 302330Z 34005KT 310V030 9999 FEW015 M08/M08 Q1021 RMK 1ST015 A3016
2017年12月31日00-24UTC 新千歳空港METAR

RJCC 310000Z 02003KT CAVOK M07/M07 Q1021 RMK A3016
RJCC 310030Z 01003KT CAVOK M06/M07 Q1021 RMK A3016
RJCC 310100Z VRB01KT CAVOK M06/M06 Q1021 RMK A3016
RJCC 310130Z 33004KT 9999 FEW030 BKN/// M05/M05 Q1020 RMK 1CU030 A3015
RJCC 310200Z 34005KT 9999 FEW030 BKN/// M03/M05 Q1020 RMK 1CU030 A3013
RJCC 310230Z 35005KT 9999 FEW030 BKN/// M03/M05 Q1019 RMK 1CU030 A3011
RJCC 310300Z 32005KT 9999 FEW030 BKN/// M02/M05 Q1019 RMK 1CU030 A3010
RJCC 310330Z 34005KT 9999 FEW030 BKN/// M02/M05 Q1018 RMK 1CU030 A3009
RJCC 310400Z 34003KT 9999 FEW030 BKN/// M01/M05 Q1018 RMK 1CU030 A3008
RJCC 310430Z 33004KT 9999 FEW030 BKN150 BKN/// M01/M05 Q1018 RMK 1CU030 5AC150 A3007
RJCC 310500Z 36004KT 9999 FEW030 SCT150 BKN/// M00/M04 Q1018 RMK 1CU030 3AC150 A3007
RJCC 310530Z 35006KT 9999 FEW020 SCT040 BKN/// M01/M05 Q1018 RMK 1CU020 3CU040 A3007
RJCC 310600Z 34006KT 9999 FEW020 BKN040 BKN/// M01/M05 Q1018 RMK 2CU020 6CU040 A3007
RJCC 310630Z 33005KT 9999 FEW020 BKN025 M01/M05 Q1018 RMK 1CU020 6CU025 A3006
RJCC 310700Z 32004KT 9999 -SHSN FEW015 SCT020 BKN025 M01/M04 Q1018 RMK 1ST015 3CU020 6CU025 A3006
RJCC 310730Z 35006KT 9999 FEW015 SCT025 BKN120 M02/M05 Q1017 RMK 1ST015 3CU025 6AC120 A3006
RJCC 310800Z 34006KT 9999 -SHSN FEW015 SCT025 BKN130 M03/M06 Q1017 RMK 1ST015 3CU025 6AC130 A3005
RJCC 310830Z 34005KT 9999 FEW015 SCT025 BKN060 M03/M05 Q1017 RMK 1ST015 3CU025 5CU060 A3005
RJCC 310900Z 34005KT 9999 -SHSN FEW015 BKN025 M03/M05 Q1017 RMK 1ST015 6CU025 A3005
RJCC 310930Z 34004KT 9999 FEW015 BKN025 BKN070 M03/M05 Q1017 RMK 1ST015 5CU025 6AC070 A3005
RJCC 311000Z 36005KT 9999 FEW015 SCT025 BKN040 M03/M05 Q1017 RMK 1ST015 3CU025 6CU040 A3004
RJCC 311030Z 36004KT 9999 FEW015 BKN040 M04/M05 Q1017 RMK 1ST015 6CU040 A3003
RJCC 311100Z 35005KT 9999 FEW015 BKN030 M03/M05 Q1016 RMK 1ST015 7CU030 A3002
RJCC 311130Z 35005KT 9999 FEW015 SCT040 BKN060 M04/M05 Q1016 RMK 1ST015 3CU040 5CU060 A3002
-2
RJCC 311200Z 36005KT 9999 FEW015 SCT025 BKN060 M03/M04 Q1016 RMK 1ST015 3CU025 7CU060 A3001
RJCC 311230Z 35005KT 9999 FEW015 SCT050 BKN080 M03/M05 Q1016 RMK 1ST015 4CU050 7AC080 A3000
RJCC 311300Z 35004KT 9999 -SHSN FEW015 BKN035 M03/M04 Q1016 RMK 1ST015 7CU035 A3000
RJCC 311330Z 36005KT 9999 -SHSN FEW015 BKN035 M03/M04 Q1015 RMK 1ST015 7CU035 A2999
RJCC 311400Z 36003KT 9999 -SHSN FEW012 BKN018 M03/M04 Q1015 RMK 1ST012 7ST018 A2998
RJCC 311430Z 34004KT 9999 -SHSN FEW010 BKN015 BKN035 M03/M04 Q1014 RMK 1ST010 6ST015 7CU035 A2996
RJCC 311500Z 34006KT 9999 -SHSN FEW008 SCT025 BKN035 M03/M04 Q1014 RMK 1ST008 3CU025 7CU035 A2995
RJCC 311530Z 35005KT 9999 -SHSN FEW008 BKN030 M03/M04 Q1013 RMK 1ST008 7CU030 A2994
RJCC 311600Z 35005KT 9999 -SHSN FEW008 SCT030 BKN050 M03/M04 Q1013 RMK 1ST008 4CU030 7CU050 A2993
RJCC 311630Z 35006KT 9999 -SHSN FEW008 BKN030 BKN040 M03/M04 Q1013 RMK 1ST008 5CU030 7CU040 A2992
RJCC 311700Z 35007KT 8000 -SHSN FEW008 BKN030 M03/M04 Q1013 RMK 1ST008 7CU030 A2992
RJCC 311730Z 34007KT 9999 -SHSN FEW010 BKN030 M03/M04 Q1012
RJCC 311800Z 33006KT 6000 -SHSN FEW010 BKN025 M03/M04 Q1012 RMK 1ST010 7CU025 A2989
RJCC 311830Z 35005KT 2500 -SHSN FEW010 BKN020 M03/M03 Q1012 RMK 1ST010 7CU020 A2988
RJCC 311900Z 36005KT 2000 -SHSN FEW010 BKN020 M03/M03 Q1011 RMK 1ST010 7CU020 A2987
RJCC 311930Z 35004KT 2000 -SHSN FEW006 BKN010 M03/M03 Q1011 RMK 1ST006 7ST010 A2986
RJCC 312000Z 33005KT 2000 R01L/P2000N R01R/2000N -SHSN FEW005 BKN007 M03/M03 Q1011 RMK 1ST005 7ST007 A2986
RJCC 312030Z 34005KT 1500 R01L/P2000N R01R/2000N -SHSN FEW005 BKN008 M03/M03 Q1011 RMK 1ST005 7ST008 A2986
-3
RJCC 312100Z 35004KT 0800 R01L/1200VP2000N R01R/1400VP2000N SHSN VV005 M03/M03 Q1011 RMK A2986
RJCC 312130Z 01004KT 0900 R01L/P2000N R01R/1900D SHSN VV006 M03/M03 Q1010 RMK A2985
RJCC 312200Z 02003KT 0700 R01L/1200V1900N R01R/1500VP2000D SHSN VV004 M03/M03 Q1010 RMK A2985
RJCC 312230Z 35003KT 0800 R01L/1400VP2000D R01R/1300VP2000U SHSN VV004 M03/M03 Q1010
RJCC 312300Z VRB02KT 3500 -SHSN FEW003 SCT005 BKN008 M01/M01 Q1010 RMK 1ST003 3ST005 5ST008 A2983
RJCC 312311Z 11004KT 070V140 1500 R19R/P2000N R19L/P2000N -SHSN FEW003 BKN005 BKN012 M00/M00 Q1010 RMK 1ST003 5ST005 7ST012 A2984
RJCC 312322Z 14004KT 050V220 1600 -SHSN FEW003 BKN005 BKN012 M00/M00 Q1010 RMK 1ST003 5ST005 7ST012 A2984
RJCC 312330Z VRB02KT 2400 -SHSN FEW003 BKN005 BKN012 00/M00 Q1010 RMK 1ST003 5ST005 7ST012 A2984
RJCC 312335Z VRB01KT 3200 -SHSN FEW003 BKN006 BKN012 00/M00 Q1010 RMK 1ST003 5ST006 7ST012 A2984
RJCC 312344Z VRB01KT 5000 -SHSN FEW003 BKN006 BKN012 00/M01 Q1010 RMK 1ST003 5ST006 7ST012 A2984

ログインすると、残り960件のコメントが見れるよ

mixiユーザー
ログインしてコメントしよう!

RJCCのMETAR・TAF 愛好会 更新情報

RJCCのMETAR・TAF 愛好会のメンバーはこんなコミュニティにも参加しています

星印の数は、共通して参加しているメンバーが多いほど増えます。

人気コミュニティランキング

mixiチケット決済